Observation data for JA Ranch on 05/15/2018      Previous  Date  Next       Current Mesonet Observations  Soil Data  Daily Summary Page  Observations in Plain Language
KPD3 150500Z 35003KT 14/12 A2993 RMK A01 T01350117  RH  089%=      5-min Rain = 0
KPD3 150501Z 36004KT 14/12 A2993 RMK A01 T01350118  RH  089%=      5-min Rain = 0
KPD3 150502Z 00004KT 14/12 A2992 RMK A01 T01360118  RH  089%=      5-min Rain = 0
KPD3 150503Z 00004KT 14/12 A2992 RMK A01 T01370119  RH  089%=      5-min Rain = 0
KPD3 150504Z 00005KT 14/12 A2992 RMK A01 T01380119  RH  088%=      5-min Rain = 0
KPD3 150505Z 01005KT 14/12 A2992 RMK A01 T01380119  RH  088%=      5-min Rain = 0
KPD3 150506Z 00005KT 14/12 A2992 RMK A01 T01380118  RH  088%=      5-min Rain = 0
KPD3 150507Z 00005KT 14/12 A2992 RMK A01 T01380119  RH  088%=      5-min Rain = 0
KPD3 150508Z 00004KT 14/12 A2992 RMK A01 T01390119  RH  088%=      5-min Rain = 0
KPD3 150509Z 35004KT 14/12 A2993 RMK A01 T01400119  RH  087%=      5-min Rain = 0
KPD3 150510Z 34004KT 14/12 A2993 RMK A01 T01410119  RH  087%=      5-min Rain = 0
KPD3 150511Z 33004KT 14/12 A2993 RMK A01 T01420120  RH  086%=      5-min Rain = 0
KPD3 150512Z 32004KT 14/12 A2993 RMK A01 T01420119  RH  086%=      5-min Rain = 0
KPD3 150513Z 31004KT 14/12 A2993 RMK A01 T01420118  RH  086%=      5-min Rain = 0
KPD3 150514Z 30004KT 14/12 A2993 RMK A01 T01410117  RH  086%=      5-min Rain = 0
KPD3 150515Z 30005KT 14/12 A2993 RMK A01 T01390116  RH  086%=      5-min Rain = 0
KPD3 150516Z 29005KT 14/12 A2993 RMK A01 T01380117  RH  087%=      5-min Rain = 0
KPD3 150517Z 29005KT 14/12 A2993 RMK A01 T01380118  RH  087%=      5-min Rain = 0
KPD3 150518Z 29004KT 14/12 A2993 RMK A01 T01390118  RH  087%=      5-min Rain = 0
KPD3 150519Z 29003KT 14/12 A2993 RMK A01 T01390117  RH  087%=      5-min Rain = 0
KPD3 150520Z 28002KT 14/12 A2993 RMK A01 T01380117  RH  087%=      5-min Rain = 0
KPD3 150521Z 28002KT 14/12 A2993 RMK A01 T01380117  RH  087%=      5-min Rain = 0
KPD3 150522Z 28001KT 14/12 A2993 RMK A01 T01390117  RH  087%=      5-min Rain = 0
KPD3 150523Z 25001KT 14/12 A2993 RMK A01 T01390117  RH  087%=      5-min Rain = 0
KPD3 150524Z 26002KT 14/12 A2994 RMK A01 T01390117  RH  086%=      5-min Rain = 0
KPD3 150525Z 26001KT 14/12 A2993 RMK A01 T01390117  RH  086%=      5-min Rain = 0
KPD3 150526Z 29001KT 14/12 A2993 RMK A01 T01390117  RH  086%=      5-min Rain = 0
KPD3 150527Z 30000KT 14/12 A2993 RMK A01 T01390117  RH  086%=      5-min Rain = 0
KPD3 150528Z 31001KT 14/12 A2993 RMK A01 T01390116  RH  086%=      5-min Rain = 0
KPD3 150529Z 30001KT 14/12 A2993 RMK A01 T01390116  RH  086%=      5-min Rain = 0
KPD3 150530Z 30002KT 14/12 A2993 RMK A01 T01390117  RH  086%=      5-min Rain = 0
KPD3 150531Z 30002KT 14/12 A2993 RMK A01 T01390117  RH  086%=      5-min Rain = 0
KPD3 150532Z 30003KT 14/12 A2993 RMK A01 T01400118  RH  087%=      5-min Rain = 0
KPD3 150533Z 30003KT 14/12 A2993 RMK A01 T01400117  RH  086%=      5-min Rain = 0
KPD3 150534Z 30003KT 14/12 A2993 RMK A01 T01390117  RH  086%=      5-min Rain = 0
KPD3 150535Z 31003KT 14/12 A2993 RMK A01 T01390117  RH  086%=      5-min Rain = 0
KPD3 150536Z 32003KT 14/12 A2993 RMK A01 T01390117  RH  087%=      5-min Rain = 0
KPD3 150537Z 33003KT 14/12 A2993 RMK A01 T01390117  RH  087%=      5-min Rain = 0
KPD3 150538Z 33002KT 14/12 A2993 RMK A01 T01390117  RH  087%=      5-min Rain = 0
KPD3 150539Z 32002KT 14/12 A2993 RMK A01 T01390117  RH  087%=      5-min Rain = 0
KPD3 150540Z 32001KT 14/12 A2993 RMK A01 T01390117  RH  087%=      5-min Rain = 0
KPD3 150541Z 33001KT 14/12 A2993 RMK A01 T01390117  RH  087%=      5-min Rain = 0
KPD3 150542Z 03001KT 14/12 A2993 RMK A01 T01380117  RH  087%=      5-min Rain = 0
KPD3 150543Z 06002KT 14/12 A2992 RMK A01 T01380116  RH  087%=      5-min Rain = 0
KPD3 150544Z 07002KT 14/12 A2992 RMK A01 T01390117  RH  087%=      5-min Rain = 0
KPD3 150545Z 07003KT 14/12 A2992 RMK A01 T01390118  RH  087%=      5-min Rain = 0
KPD3 150546Z 07003KT 14/12 A2992 RMK A01 T01410118  RH  086%=      5-min Rain = 0
KPD3 150547Z 07003KT 14/12 A2992 RMK A01 T01420117  RH  085%=      5-min Rain = 0
KPD3 150548Z 07002KT 14/12 A2993 RMK A01 T01430117  RH  084%=      5-min Rain = 0
KPD3 150549Z 07001KT 14/12 A2993 RMK A01 T01430116  RH  084%=      5-min Rain = 0
KPD3 150550Z 08000KT 14/12 A2993 RMK A01 T01420115  RH  084%=      5-min Rain = 0
KPD3 150551Z 00000KT 14/11 A2993 RMK A01 T01400114  RH  084%=      5-min Rain = 0
KPD3 150552Z 00000KT 14/11 A2993 RMK A01 T01390114  RH  085%=      5-min Rain = 0
KPD3 150553Z 17000KT 14/11 A2993 RMK A01 T01380114  RH  085%=      5-min Rain = 0
KPD3 150554Z 19001KT 14/11 A2993 RMK A01 T01380113  RH  085%=      5-min Rain = 0
KPD3 150555Z 20001KT 14/11 A2993 RMK A01 T01360111  RH  085%=      5-min Rain = 0
KPD3 150556Z 20001KT 13/11 A2993 RMK A01 T01330109  RH  085%=      5-min Rain = 0
KPD3 150557Z 19002KT 13/11 A2993 RMK A01 T01310108  RH  086%=      5-min Rain = 0
KPD3 150558Z 21002KT 13/11 A2993 RMK A01 T01300109  RH  087%=      5-min Rain = 0
KPD3 150559Z 20002KT 13/11 A2993 RMK A01 T01300109  RH  087%=      5-min Rain = 0
KPD3 150600Z 19001KT 13/11 A2993 RMK A01 T01300109  RH  087%=      5-min Rain = 0
KPD3 150601Z 18001KT 13/11 A2993 RMK A01 T01290109  RH  087%=      5-min Rain = 0
KPD3 150602Z 18001KT 13/11 A2993 RMK A01 T01290108  RH  087%=      5-min Rain = 0
KPD3 150603Z 20002KT 13/11 A2993 RMK A01 T01280109  RH  088%=      5-min Rain = 0
KPD3 150604Z 21002KT 13/11 A2993 RMK A01 T01280109  RH  088%=      5-min Rain = 0
KPD3 150605Z 20002KT 13/11 A2993 RMK A01 T01280109  RH  088%=      5-min Rain = 0
KPD3 150606Z 19001KT 13/11 A2993 RMK A01 T01270109  RH  088%=      5-min Rain = 0
KPD3 150607Z 20002KT 13/11 A2993 RMK A01 T01270109  RH  089%=      5-min Rain = 0
KPD3 150608Z 22002KT 13/11 A2993 RMK A01 T01270109  RH  089%=      5-min Rain = 0
KPD3 150609Z 22002KT 13/11 A2993 RMK A01 T01280110  RH  089%=      5-min Rain = 0
KPD3 150610Z 21002KT 13/11 A2993 RMK A01 T01280109  RH  089%=      5-min Rain = 0
KPD3 150611Z 19002KT 13/11 A2993 RMK A01 T01280110  RH  089%=      5-min Rain = 0
KPD3 150612Z 18002KT 13/11 A2993 RMK A01 T01280110  RH  089%=      5-min Rain = 0
KPD3 150613Z 17002KT 13/11 A2993 RMK A01 T01280110  RH  089%=      5-min Rain = 0
KPD3 150614Z 15001KT 13/11 A2993 RMK A01 T01280110  RH  089%=      5-min Rain = 0
KPD3 150615Z 15001KT 13/11 A2993 RMK A01 T01280109  RH  089%=      5-min Rain = 0
KPD3 150616Z 12001KT 13/11 A2993 RMK A01 T01280109  RH  089%=      5-min Rain = 0
KPD3 150617Z 11002KT 13/11 A2993 RMK A01 T01270109  RH  089%=      5-min Rain = 0
KPD3 150618Z 09002KT 13/11 A2993 RMK A01 T01270109  RH  089%=      5-min Rain = 0
KPD3 150619Z 10001KT 13/11 A2993 RMK A01 T01270109  RH  089%=      5-min Rain = 0
KPD3 150620Z 09002KT 13/11 A2993 RMK A01 T01270109  RH  089%=      5-min Rain = 0
KPD3 150621Z 08002KT 13/11 A2993 RMK A01 T01270108  RH  089%=      5-min Rain = 0
KPD3 150622Z 07002KT 13/11 A2993 RMK A01 T01260107  RH  088%=      5-min Rain = 0
KPD3 150623Z 07002KT 13/11 A2993 RMK A01 T01250107  RH  089%=      5-min Rain = 0
KPD3 150624Z 07003KT 13/11 A2993 RMK A01 T01260108  RH  089%=      5-min Rain = 0
KPD3 150625Z 07003KT 13/11 A2993 RMK A01 T01270109  RH  089%=      5-min Rain = 0
KPD3 150626Z 07002KT 13/11 A2993 RMK A01 T01280110  RH  089%=      5-min Rain = 0
KPD3 150627Z 07002KT 13/11 A2993 RMK A01 T01290109  RH  088%=      5-min Rain = 0
KPD3 150628Z 07002KT 13/11 A2993 RMK A01 T01290109  RH  088%=      5-min Rain = 0
KPD3 150629Z 07002KT 13/11 A2993 RMK A01 T01280108  RH  088%=      5-min Rain = 0
KPD3 150630Z 07002KT 13/11 A2993 RMK A01 T01280109  RH  088%=      5-min Rain = 0
KPD3 150631Z 07002KT 13/11 A2993 RMK A01 T01280109  RH  088%=      5-min Rain = 0
KPD3 150632Z 08002KT 13/11 A2993 RMK A01 T01280109  RH  088%=      5-min Rain = 0
KPD3 150633Z 09002KT 13/11 A2993 RMK A01 T01300112  RH  089%=      5-min Rain = 0
KPD3 150634Z 10002KT 13/11 A2993 RMK A01 T01320112  RH  088%=      5-min Rain = 0
KPD3 150635Z 11002KT 13/11 A2993 RMK A01 T01330111  RH  086%=      5-min Rain = 0
KPD3 150636Z 13002KT 14/11 A2993 RMK A01 T01350114  RH  087%=      5-min Rain = 0
KPD3 150637Z 13002KT 14/11 A2993 RMK A01 T01380113  RH  085%=      5-min Rain = 0
KPD3 150638Z 12002KT 14/11 A2994 RMK A01 T01380111  RH  084%=      5-min Rain = 0
KPD3 150639Z 13002KT 14/11 A2994 RMK A01 T01370109  RH  083%=      5-min Rain = 0
KPD3 150640Z 12002KT 14/11 A2994 RMK A01 T01350106  RH  083%=      5-min Rain = 0
KPD3 150641Z 12002KT 13/11 A2994 RMK A01 T01340109  RH  085%=      5-min Rain = 0
KPD3 150642Z 12002KT 13/11 A2994 RMK A01 T01340108  RH  085%=      5-min Rain = 0
KPD3 150643Z 11003KT 13/11 A2993 RMK A01 T01330108  RH  085%=      5-min Rain = 0
KPD3 150644Z 10003KT 13/11 A2993 RMK A01 T01330110  RH  086%=      5-min Rain = 0
KPD3 150645Z 09003KT 13/11 A2993 RMK A01 T01340113  RH  087%=      5-min Rain = 0
KPD3 150646Z 10002KT 14/11 A2994 RMK A01 T01370113  RH  086%=      5-min Rain = 0
KPD3 150647Z 10002KT 14/11 A2994 RMK A01 T01380113  RH  085%=      5-min Rain = 0
KPD3 150648Z 11002KT 14/11 A2994 RMK A01 T01390113  RH  085%=      5-min Rain = 0
KPD3 150649Z 10002KT 14/11 A2994 RMK A01 T01390114  RH  084%=      5-min Rain = 0
KPD3 150650Z 09002KT 14/11 A2994 RMK A01 T01400113  RH  084%=      5-min Rain = 0
KPD3 150651Z 08002KT 14/12 A2994 RMK A01 T01410116  RH  085%=      5-min Rain = 0
KPD3 150652Z 07002KT 14/12 A2994 RMK A01 T01440117  RH  084%=      5-min Rain = 0
KPD3 150653Z 06003KT 15/12 A2994 RMK A01 T01470119  RH  083%=      5-min Rain = 0
KPD3 150654Z 05003KT 15/12 A2994 RMK A01 T01490119  RH  082%=      5-min Rain = 0
KPD3 150655Z 03002KT 15/12 A2994 RMK A01 T01500119  RH  082%=      5-min Rain = 0
KPD3 150656Z 03001KT 15/12 A2994 RMK A01 T01520119  RH  081%=      5-min Rain = 0
KPD3 150657Z 02002KT 15/12 A2994 RMK A01 T01530120  RH  081%=      5-min Rain = 0
KPD3 150658Z 02002KT 15/12 A2994 RMK A01 T01540119  RH  080%=      5-min Rain = 0
KPD3 150659Z 03002KT 15/12 A2994 RMK A01 T01540119  RH  080%=      5-min Rain = 0
KPD3 150700Z 03002KT 15/12 A2994 RMK A01 T01540119  RH  080%=      5-min Rain = 0
KPD3 150701Z 03002KT 16/12 A2994 RMK A01 T01550119  RH  079%=      5-min Rain = 0
KPD3 150702Z 02002KT 15/12 A2994 RMK A01 T01540117  RH  078%=      5-min Rain = 0
KPD3 150703Z 04002KT 15/12 A2994 RMK A01 T01530116  RH  079%=      5-min Rain = 0
KPD3 150704Z 05002KT 15/12 A2994 RMK A01 T01510116  RH  079%=      5-min Rain = 0
KPD3 150705Z 05002KT 15/12 A2994 RMK A01 T01500116  RH  081%=      5-min Rain = 0
KPD3 150706Z 04002KT 15/12 A2994 RMK A01 T01490118  RH  081%=      5-min Rain = 0
KPD3 150707Z 04002KT 15/12 A2994 RMK A01 T01500118  RH  081%=      5-min Rain = 0
KPD3 150708Z 05002KT 15/12 A2994 RMK A01 T01510117  RH  080%=      5-min Rain = 0
KPD3 150709Z 06002KT 15/12 A2994 RMK A01 T01500116  RH  080%=      5-min Rain = 0
KPD3 150710Z 06002KT 15/12 A2994 RMK A01 T01500118  RH  081%=      5-min Rain = 0
KPD3 150711Z 06002KT 15/12 A2994 RMK A01 T01500119  RH  081%=      5-min Rain = 0
KPD3 150712Z 04001KT 15/12 A2994 RMK A01 T01510118  RH  081%=      5-min Rain = 0
KPD3 150713Z 04001KT 15/12 A2994 RMK A01 T01520118  RH  080%=      5-min Rain = 0
KPD3 150714Z 03002KT 15/12 A2994 RMK A01 T01510116  RH  080%=      5-min Rain = 0
KPD3 150715Z 01001KT 15/12 A2994 RMK A01 T01500118  RH  081%=      5-min Rain = 0
KPD3 150716Z 02001KT 15/12 A2994 RMK A01 T01500118  RH  081%=      5-min Rain = 0
KPD3 150717Z 01002KT 15/12 A2994 RMK A01 T01500117  RH  080%=      5-min Rain = 0
KPD3 150718Z 01002KT 15/12 A2994 RMK A01 T01480115  RH  080%=      5-min Rain = 0
KPD3 150719Z 00002KT 15/11 A2994 RMK A01 T01460113  RH  081%=      5-min Rain = 0
KPD3 150720Z 00002KT 14/12 A2994 RMK A01 T01440115  RH  082%=      5-min Rain = 0
KPD3 150721Z 00002KT 14/11 A2994 RMK A01 T01430114  RH  083%=      5-min Rain = 0
KPD3 150722Z 02002KT 14/11 A2994 RMK A01 T01420114  RH  084%=      5-min Rain = 0
KPD3 150723Z 02002KT 14/12 A2994 RMK A01 T01410115  RH  084%=      5-min Rain = 0
KPD3 150724Z 35002KT 14/12 A2994 RMK A01 T01440117  RH  084%=      5-min Rain = 0
KPD3 150725Z 00001KT 15/12 A2994 RMK A01 T01450117  RH  083%=      5-min Rain = 0
KPD3 150726Z 02001KT 15/12 A2994 RMK A01 T01460117  RH  083%=      5-min Rain = 0
KPD3 150727Z 05001KT 15/12 A2994 RMK A01 T01460117  RH  083%=      5-min Rain = 0
KPD3 150728Z 04001KT 15/12 A2994 RMK A01 T01470117  RH  082%=      5-min Rain = 0
KPD3 150729Z 04001KT 15/12 A2994 RMK A01 T01480116  RH  081%=      5-min Rain = 0
KPD3 150730Z 00000KT 15/11 A2994 RMK A01 T01460114  RH  082%=      5-min Rain = 0
KPD3 150731Z 02000KT 15/12 A2994 RMK A01 T01450116  RH  083%=      5-min Rain = 0
KPD3 150732Z 07001KT 15/12 A2994 RMK A01 T01450117  RH  083%=      5-min Rain = 0
KPD3 150733Z 10000KT 15/12 A2994 RMK A01 T01450117  RH  083%=      5-min Rain = 0
KPD3 150734Z 17000KT 15/12 A2995 RMK A01 T01470119  RH  083%=      5-min Rain = 0
KPD3 150735Z 20000KT 15/12 A2995 RMK A01 T01480118  RH  083%=      5-min Rain = 0
KPD3 150736Z 20001KT 15/12 A2995 RMK A01 T01490119  RH  082%=      5-min Rain = 0
KPD3 150737Z 19001KT 15/12 A2995 RMK A01 T01500119  RH  081%=      5-min Rain = 0
KPD3 150738Z 18001KT 15/12 A2995 RMK A01 T01510120  RH  082%=      5-min Rain = 0
KPD3 150739Z 19002KT 15/12 A2995 RMK A01 T01530120  RH  081%=      5-min Rain = 0
KPD3 150740Z 20002KT 15/12 A2995 RMK A01 T01530118  RH  080%=      5-min Rain = 0
KPD3 150741Z 20002KT 15/12 A2996 RMK A01 T01500115  RH  079%=      5-min Rain = 0
KPD3 150742Z 21001KT 15/11 A2996 RMK A01 T01470114  RH  080%=      5-min Rain = 0
KPD3 150743Z 22001KT 14/11 A2996 RMK A01 T01440113  RH  081%=      5-min Rain = 0
KPD3 150744Z 21001KT 14/11 A2996 RMK A01 T01420113  RH  083%=      5-min Rain = 0
KPD3 150745Z 19001KT 14/12 A2996 RMK A01 T01410115  RH  084%=      5-min Rain = 0
KPD3 150746Z 18001KT 14/12 A2996 RMK A01 T01410115  RH  084%=      5-min Rain = 0
KPD3 150747Z 18001KT 14/11 A2996 RMK A01 T01410114  RH  084%=      5-min Rain = 0
KPD3 150748Z 21000KT 14/11 A2996 RMK A01 T01400114  RH  084%=      5-min Rain = 0
KPD3 150749Z 20001KT 14/12 A2996 RMK A01 T01400115  RH  085%=      5-min Rain = 0
KPD3 150750Z 23001KT 14/12 A2996 RMK A01 T01400115  RH  085%=      5-min Rain = 0
KPD3 150751Z 23001KT 14/12 A2996 RMK A01 T01400115  RH  085%=      5-min Rain = 0
KPD3 150752Z 24002KT 14/11 A2996 RMK A01 T01390114  RH  085%=      5-min Rain = 0
KPD3 150753Z 24002KT 14/12 A2995 RMK A01 T01390115  RH  085%=      5-min Rain = 0
KPD3 150754Z 24002KT 14/11 A2995 RMK A01 T01390114  RH  085%=      5-min Rain = 0
KPD3 150755Z 24002KT 14/11 A2995 RMK A01 T01380114  RH  085%=      5-min Rain = 0
KPD3 150756Z 24002KT 14/11 A2995 RMK A01 T01380114  RH  086%=      5-min Rain = 0
KPD3 150757Z 23002KT 14/11 A2995 RMK A01 T01370114  RH  086%=      5-min Rain = 0
KPD3 150758Z 24003KT 14/11 A2995 RMK A01 T01370114  RH  086%=      5-min Rain = 0
KPD3 150759Z 24003KT 14/12 A2995 RMK A01 T01370115  RH  086%=      5-min Rain = 0
KPD3 150800Z 23003KT 14/12 A2996 RMK A01 T01380116  RH  086%=      5-min Rain = 0
KPD3 150801Z 23003KT 14/12 A2995 RMK A01 T01400118  RH  086%=      5-min Rain = 0
KPD3 150802Z 23002KT 14/12 A2995 RMK A01 T01410116  RH  085%=      5-min Rain = 0
KPD3 150803Z 23002KT 14/12 A2995 RMK A01 T01410117  RH  085%=      5-min Rain = 0
KPD3 150804Z 23002KT 14/12 A2995 RMK A01 T01410117  RH  085%=      5-min Rain = 0
KPD3 150805Z 23002KT 14/12 A2995 RMK A01 T01410116  RH  085%=      5-min Rain = 0
KPD3 150806Z 23002KT 14/12 A2995 RMK A01 T01410117  RH  086%=      5-min Rain = 0
KPD3 150807Z 23002KT 14/12 A2995 RMK A01 T01400118  RH  086%=      5-min Rain = 0
KPD3 150808Z 23002KT 14/12 A2995 RMK A01 T01410119  RH  086%=      5-min Rain = 0
KPD3 150809Z 23002KT 14/12 A2995 RMK A01 T01430120  RH  086%=      5-min Rain = 0
KPD3 150810Z 22003KT 14/12 A2995 RMK A01 T01430118  RH  085%=      5-min Rain = 0
KPD3 150811Z 21002KT 14/12 A2995 RMK A01 T01430120  RH  086%=      5-min Rain = 0
KPD3 150812Z 21002KT 14/12 A2995 RMK A01 T01440120  RH  086%=      5-min Rain = 0
KPD3 150813Z 21002KT 14/12 A2995 RMK A01 T01440118  RH  085%=      5-min Rain = 0
KPD3 150814Z 21002KT 14/12 A2995 RMK A01 T01440118  RH  085%=      5-min Rain = 0
KPD3 150815Z 22002KT 14/12 A2995 RMK A01 T01430120  RH  086%=      5-min Rain = 0
KPD3 150816Z 23002KT 14/12 A2995 RMK A01 T01430121  RH  086%=      5-min Rain = 0
KPD3 150817Z 22002KT 14/12 A2995 RMK A01 T01440120  RH  086%=      5-min Rain = 0
KPD3 150818Z 22001KT 14/12 A2995 RMK A01 T01440120  RH  085%=      5-min Rain = 0
KPD3 150819Z 22001KT 14/12 A2995 RMK A01 T01440120  RH  085%=      5-min Rain = 0
KPD3 150820Z 20001KT 14/12 A2995 RMK A01 T01430119  RH  085%=      5-min Rain = 0
KPD3 150821Z 17000KT 14/12 A2995 RMK A01 T01430120  RH  086%=      5-min Rain = 0
KPD3 150822Z 12000KT 14/12 A2995 RMK A01 T01430120  RH  086%=      5-min Rain = 0
KPD3 150823Z 00000KT 14/12 A2995 RMK A01 T01430119  RH  086%=      5-min Rain = 0
KPD3 150824Z 00000KT 14/12 A2995 RMK A01 T01420120  RH  086%=      5-min Rain = 0
KPD3 150825Z 00000KT 14/12 A2995 RMK A01 T01410118  RH  086%=      5-min Rain = 0
KPD3 150826Z 00000KT 14/12 A2994 RMK A01 T01400119  RH  087%=      5-min Rain = 0
KPD3 150827Z 34000KT 14/12 A2994 RMK A01 T01400120  RH  088%=      5-min Rain = 0
KPD3 150828Z 00000KT 14/12 A2994 RMK A01 T01400119  RH  087%=      5-min Rain = 0
KPD3 150829Z 32001KT 14/12 A2994 RMK A01 T01400119  RH  087%=      5-min Rain = 0
KPD3 150830Z 32001KT 14/12 A2994 RMK A01 T01390118  RH  087%=      5-min Rain = 0
KPD3 150831Z 33001KT 14/12 A2994 RMK A01 T01380118  RH  088%=      5-min Rain = 0
KPD3 150832Z 31001KT 14/12 A2994 RMK A01 T01380119  RH  088%=      5-min Rain = 0
KPD3 150833Z 31001KT 14/12 A2994 RMK A01 T01390121  RH  089%=      5-min Rain = 0
KPD3 150834Z 30000KT 14/12 A2994 RMK A01 T01400121  RH  088%=      5-min Rain = 0
KPD3 150835Z 00000KT 14/12 A2994 RMK A01 T01400120  RH  088%=      5-min Rain = 0
KPD3 150836Z 00000KT 14/12 A2994 RMK A01 T01410120  RH  088%=      5-min Rain = 0
KPD3 150837Z 00000KT 14/12 A2994 RMK A01 T01400119  RH  087%=      5-min Rain = 0
KPD3 150838Z 00000KT 14/12 A2994 RMK A01 T01400120  RH  088%=      5-min Rain = 0
KPD3 150839Z 00000KT 14/12 A2994 RMK A01 T01390120  RH  088%=      5-min Rain = 0
KPD3 150840Z 24000KT 14/12 A2994 RMK A01 T01390119  RH  088%=      5-min Rain = 0
KPD3 150841Z 00000KT 14/12 A2994 RMK A01 T01390119  RH  087%=      5-min Rain = 0
KPD3 150842Z 00000KT 14/12 A2994 RMK A01 T01380117  RH  087%=      5-min Rain = 0
KPD3 150843Z 00000KT 14/12 A2994 RMK A01 T01370116  RH  087%=      5-min Rain = 0
KPD3 150844Z 18000KT 14/12 A2994 RMK A01 T01360116  RH  087%=      5-min Rain = 0
KPD3 150845Z 18000KT 14/12 A2994 RMK A01 T01350115  RH  088%=      5-min Rain = 0
KPD3 150846Z 22000KT 13/11 A2994 RMK A01 T01340114  RH  088%=      5-min Rain = 0
KPD3 150847Z 24000KT 13/12 A2994 RMK A01 T01330115  RH  088%=      5-min Rain = 0
KPD3 150848Z 27001KT 13/12 A2994 RMK A01 T01330115  RH  089%=      5-min Rain = 0
KPD3 150849Z 28002KT 13/12 A2994 RMK A01 T01320115  RH  089%=      5-min Rain = 0
KPD3 150850Z 28002KT 13/12 A2994 RMK A01 T01320116  RH  090%=      5-min Rain = 0
KPD3 150851Z 28002KT 13/12 A2994 RMK A01 T01320117  RH  091%=      5-min Rain = 0
KPD3 150852Z 28002KT 13/12 A2994 RMK A01 T01320118  RH  091%=      5-min Rain = 0
KPD3 150853Z 29001KT 13/12 A2994 RMK A01 T01330119  RH  091%=      5-min Rain = 0
KPD3 150854Z 30001KT 13/12 A2994 RMK A01 T01340120  RH  091%=      5-min Rain = 0
KPD3 150855Z 30000KT 13/12 A2994 RMK A01 T01340119  RH  091%=      5-min Rain = 0
KPD3 150856Z 00000KT 14/12 A2994 RMK A01 T01350119  RH  090%=      5-min Rain = 0
KPD3 150857Z 00000KT 13/12 A2994 RMK A01 T01340119  RH  090%=      5-min Rain = 0
KPD3 150858Z 33000KT 13/12 A2993 RMK A01 T01340118  RH  090%=      5-min Rain = 0
KPD3 150859Z 34001KT 14/12 A2993 RMK A01 T01350119  RH  091%=      5-min Rain = 0
KPD3 150900Z 35001KT 14/12 A2993 RMK A01 T01350120  RH  091%=      5-min Rain = 0
KPD3 150901Z 01001KT 14/12 A2993 RMK A01 T01350120  RH  091%=      5-min Rain = 0
KPD3 150902Z 03001KT 14/12 A2993 RMK A01 T01350120  RH  090%=      5-min Rain = 0
KPD3 150903Z 04001KT 14/12 A2993 RMK A01 T01350120  RH  090%=      5-min Rain = 0
KPD3 150904Z 05002KT 14/12 A2993 RMK A01 T01350120  RH  090%=      5-min Rain = 0
KPD3 150905Z 04002KT 14/12 A2993 RMK A01 T01360120  RH  090%=      5-min Rain = 0
KPD3 150906Z 03002KT 14/12 A2993 RMK A01 T01350120  RH  090%=      5-min Rain = 0
KPD3 150907Z 02003KT 14/12 A2993 RMK A01 T01350119  RH  090%=      5-min Rain = 0
KPD3 150908Z 01003KT 13/12 A2993 RMK A01 T01340118  RH  090%=      5-min Rain = 0
KPD3 150909Z 00003KT 13/12 A2993 RMK A01 T01340118  RH  090%=      5-min Rain = 0
KPD3 150910Z 00003KT 13/12 A2993 RMK A01 T01330117  RH  090%=      5-min Rain = 0
KPD3 150911Z 36004KT 13/12 A2993 RMK A01 T01320116  RH  090%=      5-min Rain = 0
KPD3 150912Z 35004KT 13/12 A2993 RMK A01 T01310115  RH  090%=      5-min Rain = 0
KPD3 150913Z 35004KT 13/11 A2993 RMK A01 T01300114  RH  090%=      5-min Rain = 0
KPD3 150914Z 34004KT 13/11 A2993 RMK A01 T01290114  RH  091%=      5-min Rain = 0
KPD3 150915Z 34004KT 13/12 A2993 RMK A01 T01290116  RH  092%=      5-min Rain = 0
KPD3 150916Z 34004KT 13/12 A2993 RMK A01 T01290116  RH  092%=      5-min Rain = 0
KPD3 150917Z 34003KT 13/12 A2993 RMK A01 T01300117  RH  092%=      5-min Rain = 0
KPD3 150918Z 34003KT 13/12 A2993 RMK A01 T01300117  RH  092%=      5-min Rain = 0
KPD3 150919Z 34003KT 13/12 A2993 RMK A01 T01300118  RH  092%=      5-min Rain = 0
KPD3 150920Z 34003KT 13/12 A2993 RMK A01 T01300117  RH  092%=      5-min Rain = 0
KPD3 150921Z 33003KT 13/12 A2993 RMK A01 T01300117  RH  092%=      5-min Rain = 0
KPD3 150922Z 33003KT 13/12 A2993 RMK A01 T01300116  RH  091%=      5-min Rain = 0
KPD3 150923Z 32004KT 13/12 A2993 RMK A01 T01290115  RH  091%=      5-min Rain = 0
KPD3 150924Z 32004KT 13/12 A2993 RMK A01 T01280115  RH  091%=      5-min Rain = 0
KPD3 150925Z 32004KT 13/12 A2993 RMK A01 T01280115  RH  092%=      5-min Rain = 0
KPD3 150926Z 32004KT 13/12 A2993 RMK A01 T01280116  RH  092%=      5-min Rain = 0
KPD3 150927Z 32004KT 13/12 A2992 RMK A01 T01280115  RH  091%=      5-min Rain = 0
KPD3 150928Z 32004KT 13/12 A2992 RMK A01 T01280115  RH  092%=      5-min Rain = 0
KPD3 150929Z 32004KT 13/12 A2992 RMK A01 T01280115  RH  092%=      5-min Rain = 0
KPD3 150930Z 32004KT 13/11 A2992 RMK A01 T01270114  RH  091%=      5-min Rain = 0
KPD3 150931Z 32004KT 13/11 A2992 RMK A01 T01270114  RH  092%=      5-min Rain = 0
KPD3 150932Z 32003KT 13/11 A2992 RMK A01 T01260114  RH  092%=      5-min Rain = 0
KPD3 150933Z 32003KT 13/11 A2992 RMK A01 T01260114  RH  092%=      5-min Rain = 0
KPD3 150934Z 32003KT 13/11 A2992 RMK A01 T01270114  RH  092%=      5-min Rain = 0
KPD3 150935Z 31002KT 13/12 A2992 RMK A01 T01270115  RH  092%=      5-min Rain = 0
KPD3 150936Z 31002KT 13/12 A2992 RMK A01 T01260115  RH  092%=      5-min Rain = 0
KPD3 150937Z 31001KT 13/12 A2992 RMK A01 T01270115  RH  092%=      5-min Rain = 0
KPD3 150938Z 30001KT 13/11 A2992 RMK A01 T01270114  RH  092%=      5-min Rain = 0
KPD3 150939Z 29001KT 13/11 A2992 RMK A01 T01270114  RH  092%=      5-min Rain = 0
KPD3 150940Z 29001KT 13/12 A2992 RMK A01 T01270115  RH  093%=      5-min Rain = 0
KPD3 150941Z 29001KT 13/12 A2992 RMK A01 T01280116  RH  093%=      5-min Rain = 0
KPD3 150942Z 27002KT 13/11 A2992 RMK A01 T01270114  RH  091%=      5-min Rain = 0
KPD3 150943Z 28002KT 13/11 A2992 RMK A01 T01260112  RH  091%=      5-min Rain = 0
KPD3 150944Z 28002KT 13/11 A2992 RMK A01 T01260113  RH  092%=      5-min Rain = 0
KPD3 150945Z 28002KT 13/11 A2992 RMK A01 T01250113  RH  092%=      5-min Rain = 0
KPD3 150946Z 27002KT 12/11 A2992 RMK A01 T01240112  RH  092%=      5-min Rain = 0
KPD3 150947Z 26003KT 12/11 A2992 RMK A01 T01240112  RH  092%=      5-min Rain = 0
KPD3 150948Z 26003KT 12/11 A2992 RMK A01 T01240113  RH  093%=      5-min Rain = 0
KPD3 150949Z 26002KT 12/11 A2992 RMK A01 T01240113  RH  093%=      5-min Rain = 0
KPD3 150950Z 26002KT 12/11 A2991 RMK A01 T01240112  RH  093%=      5-min Rain = 0
KPD3 150951Z 27002KT 12/11 A2991 RMK A01 T01230111  RH  092%=      5-min Rain = 0
KPD3 150952Z 26003KT 12/11 A2991 RMK A01 T01220110  RH  092%=      5-min Rain = 0
KPD3 150953Z 26003KT 12/11 A2991 RMK A01 T01210109  RH  092%=      5-min Rain = 0
KPD3 150954Z 25003KT 12/11 A2991 RMK A01 T01210109  RH  092%=      5-min Rain = 0
KPD3 150955Z 25003KT 12/11 A2992 RMK A01 T01210109  RH  093%=      5-min Rain = 0
KPD3 150956Z 25003KT 12/11 A2992 RMK A01 T01200109  RH  093%=      5-min Rain = 0
KPD3 150957Z 25002KT 12/11 A2992 RMK A01 T01210110  RH  093%=      5-min Rain = 0
KPD3 150958Z 26003KT 12/11 A2992 RMK A01 T01210110  RH  093%=      5-min Rain = 0
KPD3 150959Z 26003KT 12/11 A2992 RMK A01 T01210110  RH  093%=      5-min Rain = 0
KPD3 151000Z 27003KT 12/11 A2992 RMK A01 T01210110  RH  093%=      5-min Rain = 0
KPD3 151001Z 26003KT 12/11 A2992 RMK A01 T01210110  RH  093%=      5-min Rain = 0
KPD3 151002Z 26003KT 12/11 A2992 RMK A01 T01210110  RH  093%=      5-min Rain = 0
KPD3 151003Z 26003KT 12/11 A2992 RMK A01 T01210110  RH  093%=      5-min Rain = 0
KPD3 151004Z 26003KT 12/11 A2991 RMK A01 T01210110  RH  093%=      5-min Rain = 0
KPD3 151005Z 26003KT 12/11 A2991 RMK A01 T01210110  RH  093%=      5-min Rain = 0
KPD3 151006Z 26003KT 12/11 A2991 RMK A01 T01210110  RH  093%=      5-min Rain = 0
KPD3 151007Z 26003KT 12/11 A2991 RMK A01 T01210110  RH  093%=      5-min Rain = 0
KPD3 151008Z 26003KT 12/11 A2991 RMK A01 T01210110  RH  093%=      5-min Rain = 0
KPD3 151009Z 26003KT 12/11 A2991 RMK A01 T01210110  RH  093%=      5-min Rain = 0
KPD3 151010Z 26003KT 12/11 A2991 RMK A01 T01210110  RH  093%=      5-min Rain = 0
KPD3 151011Z 25003KT 12/11 A2991 RMK A01 T01210110  RH  093%=      5-min Rain = 0
KPD3 151012Z 25003KT 12/11 A2991 RMK A01 T01210110  RH  093%=      5-min Rain = 0
KPD3 151013Z 25003KT 12/11 A2991 RMK A01 T01210111  RH  093%=      5-min Rain = 0
KPD3 151014Z 23003KT 12/11 A2991 RMK A01 T01220111  RH  093%=      5-min Rain = 0
KPD3 151015Z 22003KT 12/11 A2991 RMK A01 T01220110  RH  093%=      5-min Rain = 0
KPD3 151016Z 22003KT 12/11 A2991 RMK A01 T01220110  RH  093%=      5-min Rain = 0
KPD3 151017Z 21003KT 12/11 A2991 RMK A01 T01220110  RH  093%=      5-min Rain = 0
KPD3 151018Z 22003KT 12/11 A2991 RMK A01 T01210110  RH  093%=      5-min Rain = 0
KPD3 151019Z 22003KT 12/11 A2991 RMK A01 T01210111  RH  093%=      5-min Rain = 0
KPD3 151020Z 22004KT 12/11 A2991 RMK A01 T01210111  RH  094%=      5-min Rain = 0
KPD3 151021Z 22004KT 12/11 A2991 RMK A01 T01220112  RH  094%=      5-min Rain = 0
KPD3 151022Z 22004KT 12/11 A2991 RMK A01 T01220112  RH  094%=      5-min Rain = 0
KPD3 151023Z 23004KT 12/11 A2991 RMK A01 T01220112  RH  094%=      5-min Rain = 0
KPD3 151024Z 23003KT 12/11 A2991 RMK A01 T01230113  RH  094%=      5-min Rain = 0
KPD3 151025Z 24004KT 12/11 A2991 RMK A01 T01240114  RH  094%=      5-min Rain = 0
KPD3 151026Z 25004KT 13/12 A2991 RMK A01 T01250115  RH  094%=      5-min Rain = 0
KPD3 151027Z 27004KT 13/11 A2991 RMK A01 T01250114  RH  093%=      5-min Rain = 0
KPD3 151028Z 28005KT 13/11 A2991 RMK A01 T01250114  RH  093%=      5-min Rain = 0
KPD3 151029Z 29006KT 13/11 A2991 RMK A01 T01250113  RH  093%=      5-min Rain = 0
KPD3 151030Z 30006KT 13/11 A2991 RMK A01 T01250114  RH  093%=      5-min Rain = 0
KPD3 151031Z 31006KT 13/11 A2991 RMK A01 T01250114  RH  093%=      5-min Rain = 0
KPD3 151032Z 33006KT 13/12 A2991 RMK A01 T01250115  RH  093%=      5-min Rain = 0
KPD3 151033Z 34007KT 13/11 A2992 RMK A01 T01250114  RH  093%=      5-min Rain = 0
KPD3 151034Z 35007KT 13/12 A2992 RMK A01 T01260116  RH  094%=      5-min Rain = 0
KPD3 151035Z 36008KT 13/12 A2992 RMK A01 T01270118  RH  094%=      5-min Rain = 0
KPD3 151036Z 00009KT 13/12 A2993 RMK A01 T01290121  RH  095%=      5-min Rain = 0
KPD3 151037Z 01010KT 13/12 A2993 RMK A01 T01320123  RH  095%=      5-min Rain = 0
KPD3 151038Z 01010KT 13/13 A2993 RMK A01 T01340125  RH  094%=      5-min Rain = 0
KPD3 151039Z 01010KT 14/13 A2993 RMK A01 T01360127  RH  094%=      5-min Rain = 0
KPD3 151040Z 01010KT 14/13 A2993 RMK A01 T01380128  RH  093%=      5-min Rain = 0
KPD3 151041Z 01009KT 14/13 A2993 RMK A01 T01400128  RH  092%=      5-min Rain = 0
KPD3 151042Z 01009KT 14/13 A2994 RMK A01 T01410128  RH  092%=      5-min Rain = 0
KPD3 151043Z 01009KT 14/13 A2994 RMK A01 T01420128  RH  091%=      5-min Rain = 0
KPD3 151044Z 01008KT 14/13 A2994 RMK A01 T01420127  RH  091%=      5-min Rain = 0
KPD3 151045Z 00007KT 14/13 A2993 RMK A01 T01420127  RH  091%=      5-min Rain = 0
KPD3 151046Z 36007KT 14/13 A2993 RMK A01 T01430127  RH  090%=      5-min Rain = 0
KPD3 151047Z 35007KT 14/13 A2993 RMK A01 T01430127  RH  090%=      5-min Rain = 0
KPD3 151048Z 35006KT 14/13 A2993 RMK A01 T01440127  RH  090%=      5-min Rain = 0
KPD3 151049Z 35006KT 14/13 A2993 RMK A01 T01440127  RH  089%=      5-min Rain = 0
KPD3 151050Z 34005KT 14/13 A2993 RMK A01 T01440127  RH  089%=      5-min Rain = 0
KPD3 151051Z 35006KT 14/13 A2993 RMK A01 T01440127  RH  089%=      5-min Rain = 0
KPD3 151052Z 33006KT 15/13 A2993 RMK A01 T01450127  RH  089%=      5-min Rain = 0
KPD3 151053Z 33007KT 15/13 A2993 RMK A01 T01450127  RH  089%=      5-min Rain = 0
KPD3 151054Z 34008KT 14/13 A2993 RMK A01 T01440127  RH  089%=      5-min Rain = 0
KPD3 151055Z 35009KT 15/13 A2993 RMK A01 T01450128  RH  089%=      5-min Rain = 0
KPD3 151056Z 01012KT 15/13 A2993 RMK A01 T01460129  RH  089%=      5-min Rain = 0
KPD3 151057Z 02008KT 15/13 A2993 RMK A01 T01520133  RH  088%=      5-min Rain = 0
KPD3 151058Z 01008KT 16/13 A2994 RMK A01 T01570132  RH  085%=      5-min Rain = 0
KPD3 151059Z 01007KT 16/13 A2994 RMK A01 T01580131  RH  084%=      5-min Rain = 0
KPD3 151100Z 01008KT 16/13 A2994 RMK A01 T01570130  RH  084%=      5-min Rain = 0
KPD3 151101Z 01008KT 16/13 A2994 RMK A01 T01560130  RH  085%=      5-min Rain = 0
KPD3 151102Z 01007KT 16/13 A2994 RMK A01 T01550130  RH  085%=      5-min Rain = 0
KPD3 151103Z 01009KT 15/13 A2994 RMK A01 T01540130  RH  085%=      5-min Rain = 0
KPD3 151104Z 01008KT 15/13 A2994 RMK A01 T01530130  RH  086%=      5-min Rain = 0
KPD3 151105Z 01008KT 15/13 A2994 RMK A01 T01520130  RH  087%=      5-min Rain = 0
KPD3 151106Z 35007KT 15/13 A2994 RMK A01 T01520131  RH  087%=      5-min Rain = 0
KPD3 151107Z 36008KT 15/13 A2995 RMK A01 T01530131  RH  087%=      5-min Rain = 0
KPD3 151108Z 00009KT 15/13 A2995 RMK A01 T01530131  RH  087%=      5-min Rain = 0
KPD3 151109Z 35008KT 15/13 A2995 RMK A01 T01520131  RH  087%=      5-min Rain = 0
KPD3 151110Z 36007KT 15/13 A2995 RMK A01 T01520131  RH  087%=      5-min Rain = 0
KPD3 151111Z 35007KT 15/13 A2995 RMK A01 T01520131  RH  087%=      5-min Rain = 0
KPD3 151112Z 35007KT 15/13 A2995 RMK A01 T01520131  RH  088%=      5-min Rain = 0
KPD3 151113Z 35008KT 15/13 A2995 RMK A01 T01520132  RH  088%=      5-min Rain = 0
KPD3 151114Z 34008KT 15/13 A2995 RMK A01 T01520131  RH  088%=      5-min Rain = 0
KPD3 151115Z 35008KT 15/13 A2995 RMK A01 T01520132  RH  087%=      5-min Rain = 0
KPD3 151116Z 35007KT 15/13 A2995 RMK A01 T01530132  RH  087%=      5-min Rain = 0
KPD3 151117Z 36007KT 15/13 A2995 RMK A01 T01530132  RH  087%=      5-min Rain = 0
KPD3 151118Z 01006KT 15/13 A2995 RMK A01 T01530132  RH  087%=      5-min Rain = 0
KPD3 151119Z 36007KT 15/13 A2995 RMK A01 T01530132  RH  087%=      5-min Rain = 0
KPD3 151120Z 36006KT 15/13 A2995 RMK A01 T01540132  RH  087%=      5-min Rain = 0
KPD3 151121Z 36007KT 15/13 A2995 RMK A01 T01540133  RH  087%=      5-min Rain = 0
KPD3 151122Z 36007KT 15/13 A2995 RMK A01 T01540133  RH  087%=      5-min Rain = 0
KPD3 151123Z 00007KT 16/13 A2995 RMK A01 T01550133  RH  087%=      5-min Rain = 0
KPD3 151124Z 00007KT 16/13 A2995 RMK A01 T01550133  RH  087%=      5-min Rain = 0
KPD3 151125Z 00007KT 16/13 A2995 RMK A01 T01550133  RH  087%=      5-min Rain = 0
KPD3 151126Z 00008KT 16/13 A2995 RMK A01 T01550133  RH  087%=      5-min Rain = 0
KPD3 151127Z 36009KT 16/13 A2996 RMK A01 T01550134  RH  087%=      5-min Rain = 0
KPD3 151128Z 36010KT 16/13 A2996 RMK A01 T01560134  RH  087%=      5-min Rain = 0
KPD3 151129Z 00010KT 16/14 A2996 RMK A01 T01560135  RH  087%=      5-min Rain = 0
KPD3 151130Z 36008KT 16/14 A2996 RMK A01 T01570135  RH  087%=      5-min Rain = 0
KPD3 151131Z 36007KT 16/14 A2996 RMK A01 T01580135  RH  086%=      5-min Rain = 0
KPD3 151132Z 01008KT 16/14 A2996 RMK A01 T01580135  RH  086%=      5-min Rain = 0
KPD3 151133Z 01008KT 16/14 A2996 RMK A01 T01590136  RH  086%=      5-min Rain = 0
KPD3 151134Z 00008KT 16/14 A2996 RMK A01 T01590136  RH  086%=      5-min Rain = 0
KPD3 151135Z 01008KT 16/14 A2996 RMK A01 T01590136  RH  086%=      5-min Rain = 0
KPD3 151136Z 00008KT 16/14 A2996 RMK A01 T01590135  RH  086%=      5-min Rain = 0
KPD3 151137Z 36007KT 16/14 A2996 RMK A01 T01590136  RH  086%=      5-min Rain = 0
KPD3 151138Z 36008KT 16/14 A2996 RMK A01 T01590136  RH  086%=      5-min Rain = 0
KPD3 151139Z 36007KT 16/14 A2997 RMK A01 T01590136  RH  086%=      5-min Rain = 0
KPD3 151140Z 35007KT 16/14 A2997 RMK A01 T01590136  RH  086%=      5-min Rain = 0
KPD3 151141Z 35007KT 16/14 A2997 RMK A01 T01590136  RH  086%=      5-min Rain = 0
KPD3 151142Z 34007KT 16/14 A2997 RMK A01 T01590136  RH  086%=      5-min Rain = 0
KPD3 151143Z 35007KT 16/14 A2997 RMK A01 T01590136  RH  086%=      5-min Rain = 0
KPD3 151144Z 35008KT 16/14 A2997 RMK A01 T01590136  RH  086%=      5-min Rain = 0
KPD3 151145Z 00009KT 16/14 A2997 RMK A01 T01600137  RH  086%=      5-min Rain = 0
KPD3 151146Z 00009KT 16/14 A2997 RMK A01 T01610137  RH  086%=      5-min Rain = 0
KPD3 151147Z 00009KT 16/14 A2997 RMK A01 T01620137  RH  085%=      5-min Rain = 0
KPD3 151148Z 01008KT 16/14 A2997 RMK A01 T01630137  RH  085%=      5-min Rain = 0
KPD3 151149Z 01007KT 16/14 A2998 RMK A01 T01630137  RH  084%=      5-min Rain = 0
KPD3 151150Z 00007KT 16/14 A2998 RMK A01 T01630137  RH  084%=      5-min Rain = 0
KPD3 151151Z 01007KT 16/14 A2998 RMK A01 T01630137  RH  084%=      5-min Rain = 0
KPD3 151152Z 00006KT 16/14 A2998 RMK A01 T01630137  RH  084%=      5-min Rain = 0
KPD3 151153Z 00006KT 16/14 A2998 RMK A01 T01630137  RH  084%=      5-min Rain = 0
KPD3 151154Z 36005KT 16/14 A2998 RMK A01 T01630137  RH  084%=      5-min Rain = 0
KPD3 151155Z 35006KT 16/14 A2998 RMK A01 T01630137  RH  085%=      5-min Rain = 0
KPD3 151156Z 35008KT 16/14 A2998 RMK A01 T01630137  RH  085%=      5-min Rain = 0
KPD3 151157Z 35007KT 16/14 A2998 RMK A01 T01630137  RH  085%=      5-min Rain = 0
KPD3 151158Z 35006KT 16/14 A2999 RMK A01 T01630137  RH  084%=      5-min Rain = 0
KPD3 151159Z 35007KT 16/14 A2999 RMK A01 T01630137  RH  084%=      5-min Rain = 0
KPD3 151200Z 34006KT 16/14 A2999 RMK A01 T01630137  RH  084%=      5-min Rain = 0
KPD3 151201Z 34006KT 16/14 A2999 RMK A01 T01640137  RH  084%=      5-min Rain = 0
KPD3 151202Z 34006KT 16/14 A2999 RMK A01 T01640137  RH  084%=      5-min Rain = 0
KPD3 151203Z 35006KT 16/14 A2999 RMK A01 T01640137  RH  084%=      5-min Rain = 0
KPD3 151204Z 35005KT 16/14 A2999 RMK A01 T01640137  RH  084%=      5-min Rain = 0
KPD3 151205Z 35005KT 16/14 A2999 RMK A01 T01640136  RH  084%=      5-min Rain = 0
KPD3 151206Z 35004KT 16/14 A2999 RMK A01 T01640136  RH  083%=      5-min Rain = 0
KPD3 151207Z 35005KT 16/14 A2999 RMK A01 T01640136  RH  083%=      5-min Rain = 0
KPD3 151208Z 34004KT 16/14 A2999 RMK A01 T01640136  RH  083%=      5-min Rain = 0
KPD3 151209Z 34004KT 17/14 A2999 RMK A01 T01650136  RH  083%=      5-min Rain = 0
KPD3 151210Z 34005KT 17/14 A2999 RMK A01 T01650136  RH  083%=      5-min Rain = 0
KPD3 151211Z 35005KT 17/14 A2999 RMK A01 T01650136  RH  083%=      5-min Rain = 0
KPD3 151212Z 35006KT 17/14 A2999 RMK A01 T01650136  RH  083%=      5-min Rain = 0
KPD3 151213Z 35007KT 17/14 A30 RMK A01 T01650137  RH  083%=      5-min Rain = 0
KPD3 151214Z 35007KT 17/14 A30 RMK A01 T01650137  RH  083%=      5-min Rain = 0
KPD3 151215Z 35007KT 17/14 A30 RMK A01 T01650136  RH  083%=      5-min Rain = 0
KPD3 151216Z 34007KT 17/14 A30 RMK A01 T01650136  RH  083%=      5-min Rain = 0
KPD3 151217Z 34007KT 17/14 A30 RMK A01 T01650136  RH  083%=      5-min Rain = 0
KPD3 151218Z 34007KT 17/14 A30 RMK A01 T01650136  RH  083%=      5-min Rain = 0
KPD3 151219Z 34007KT 17/14 A30 RMK A01 T01660136  RH  083%=      5-min Rain = 0
KPD3 151220Z 34007KT 17/14 A30 RMK A01 T01660137  RH  083%=      5-min Rain = 0
KPD3 151221Z 34007KT 17/14 A30 RMK A01 T01660137  RH  083%=      5-min Rain = 0
KPD3 151222Z 35007KT 17/14 A30 RMK A01 T01670137  RH  083%=      5-min Rain = 0
KPD3 151223Z 35007KT 17/14 A30 RMK A01 T01660137  RH  083%=      5-min Rain = 0
KPD3 151224Z 00007KT 17/14 A30 RMK A01 T01660137  RH  083%=      5-min Rain = 0
KPD3 151225Z 00007KT 17/14 A30 RMK A01 T01660137  RH  083%=      5-min Rain = 0
KPD3 151226Z 00007KT 17/14 A30 RMK A01 T01660137  RH  083%=      5-min Rain = 0
KPD3 151227Z 01007KT 17/14 A30 RMK A01 T01670137  RH  083%=      5-min Rain = 0
KPD3 151228Z 01008KT 17/14 A3001 RMK A01 T01660137  RH  082%=      5-min Rain = 0
KPD3 151229Z 01007KT 17/14 A3001 RMK A01 T01660136  RH  082%=      5-min Rain = 0
KPD3 151230Z 01008KT 17/14 A3001 RMK A01 T01670136  RH  082%=      5-min Rain = 0
KPD3 151231Z 01007KT 17/14 A3001 RMK A01 T01660135  RH  082%=      5-min Rain = 0
KPD3 151232Z 00007KT 17/14 A3001 RMK A01 T01670135  RH  082%=      5-min Rain = 0
KPD3 151233Z 00007KT 17/14 A3001 RMK A01 T01670135  RH  081%=      5-min Rain = 0
KPD3 151234Z 00007KT 17/13 A3001 RMK A01 T01670134  RH  081%=      5-min Rain = 0
KPD3 151235Z 35007KT 17/13 A3001 RMK A01 T01680134  RH  080%=      5-min Rain = 0
KPD3 151236Z 00007KT 17/13 A3001 RMK A01 T01680134  RH  080%=      5-min Rain = 0
KPD3 151237Z 36007KT 17/14 A3001 RMK A01 T01690135  RH  080%=      5-min Rain = 0
KPD3 151238Z 36007KT 17/14 A3001 RMK A01 T01690135  RH  080%=      5-min Rain = 0
KPD3 151239Z 35007KT 17/14 A3001 RMK A01 T01690135  RH  080%=      5-min Rain = 0
KPD3 151240Z 35007KT 17/14 A3002 RMK A01 T01690135  RH  081%=      5-min Rain = 0
KPD3 151241Z 35007KT 17/14 A3002 RMK A01 T01690136  RH  081%=      5-min Rain = 0
KPD3 151242Z 36007KT 17/14 A3002 RMK A01 T01690136  RH  081%=      5-min Rain = 0
KPD3 151243Z 35007KT 17/14 A3002 RMK A01 T01690136  RH  081%=      5-min Rain = 0
KPD3 151244Z 36007KT 17/14 A3002 RMK A01 T01700136  RH  080%=      5-min Rain = 0
KPD3 151245Z 00006KT 17/14 A3002 RMK A01 T01700136  RH  080%=      5-min Rain = 0
KPD3 151246Z 00006KT 17/14 A3002 RMK A01 T01710136  RH  080%=      5-min Rain = 0
KPD3 151247Z 00006KT 17/14 A3002 RMK A01 T01710137  RH  080%=      5-min Rain = 0
KPD3 151248Z 35005KT 17/14 A3002 RMK A01 T01720137  RH  080%=      5-min Rain = 0
KPD3 151249Z 34007KT 17/14 A3002 RMK A01 T01730137  RH  080%=      5-min Rain = 0
KPD3 151250Z 35006KT 17/14 A3003 RMK A01 T01740137  RH  079%=      5-min Rain = 0
KPD3 151251Z 35006KT 17/14 A3003 RMK A01 T01740137  RH  079%=      5-min Rain = 0
KPD3 151252Z 35007KT 18/14 A3003 RMK A01 T01750137  RH  079%=      5-min Rain = 0
KPD3 151253Z 35007KT 18/14 A3003 RMK A01 T01750137  RH  078%=      5-min Rain = 0
KPD3 151254Z 35008KT 18/14 A3003 RMK A01 T01760136  RH  078%=      5-min Rain = 0
KPD3 151255Z 35009KT 18/14 A3003 RMK A01 T01770136  RH  076%=      5-min Rain = 0
KPD3 151256Z 35009KT 18/14 A3003 RMK A01 T01780135  RH  076%=      5-min Rain = 0
KPD3 151257Z 00007KT 18/14 A3003 RMK A01 T01790136  RH  076%=      5-min Rain = 0
KPD3 151258Z 36010KT 18/14 A3003 RMK A01 T01800136  RH  075%=      5-min Rain = 0
KPD3 151259Z 00009KT 18/14 A3003 RMK A01 T01810135  RH  074%=      5-min Rain = 0
KPD3 151300Z 01010KT 18/13 A3003 RMK A01 T01820134  RH  074%=      5-min Rain = 0
KPD3 151301Z 01008KT 18/13 A3003 RMK A01 T01830134  RH  073%=      5-min Rain = 0
KPD3 151302Z 00008KT 18/13 A3003 RMK A01 T01840134  RH  073%=      5-min Rain = 0
KPD3 151303Z 01008KT 19/13 A3003 RMK A01 T01850133  RH  072%=      5-min Rain = 0
KPD3 151304Z 01006KT 19/14 A3003 RMK A01 T01850135  RH  072%=      5-min Rain = 0
KPD3 151305Z 02006KT 19/14 A3002 RMK A01 T01870135  RH  072%=      5-min Rain = 0
KPD3 151306Z 02006KT 19/13 A3002 RMK A01 T01870134  RH  071%=      5-min Rain = 0
KPD3 151307Z 02007KT 19/14 A3002 RMK A01 T01880136  RH  072%=      5-min Rain = 0
KPD3 151308Z 01007KT 19/14 A3002 RMK A01 T01890135  RH  071%=      5-min Rain = 0
KPD3 151309Z 01009KT 19/14 A3003 RMK A01 T01900135  RH  070%=      5-min Rain = 0
KPD3 151310Z 01008KT 19/13 A3003 RMK A01 T01900134  RH  070%=      5-min Rain = 0
KPD3 151311Z 01007KT 19/14 A3003 RMK A01 T01900135  RH  070%=      5-min Rain = 0
KPD3 151312Z 01008KT 19/14 A3003 RMK A01 T01900135  RH  070%=      5-min Rain = 0
KPD3 151313Z 01008KT 19/13 A3003 RMK A01 T01900134  RH  070%=      5-min Rain = 0
KPD3 151314Z 02006KT 19/13 A3003 RMK A01 T01900134  RH  070%=      5-min Rain = 0
KPD3 151315Z 01006KT 19/13 A3003 RMK A01 T01900133  RH  069%=      5-min Rain = 0
KPD3 151316Z 00004KT 19/13 A3003 RMK A01 T01910133  RH  069%=      5-min Rain = 0
KPD3 151317Z 00006KT 19/13 A3004 RMK A01 T01910134  RH  070%=      5-min Rain = 0
KPD3 151318Z 02006KT 19/13 A3004 RMK A01 T01910133  RH  069%=      5-min Rain = 0
KPD3 151319Z 02008KT 19/13 A3004 RMK A01 T01910133  RH  069%=      5-min Rain = 0
KPD3 151320Z 03007KT 19/13 A3004 RMK A01 T01910132  RH  068%=      5-min Rain = 0
KPD3 151321Z 02006KT 19/13 A3004 RMK A01 T01910132  RH  069%=      5-min Rain = 0
KPD3 151322Z 02006KT 19/13 A3004 RMK A01 T01910132  RH  069%=      5-min Rain = 0
KPD3 151323Z 03007KT 19/13 A3004 RMK A01 T01910133  RH  069%=      5-min Rain = 0
KPD3 151324Z 03007KT 19/13 A3003 RMK A01 T01910132  RH  068%=      5-min Rain = 0
KPD3 151325Z 05007KT 19/13 A3003 RMK A01 T01910132  RH  068%=      5-min Rain = 0
KPD3 151326Z 04008KT 19/13 A3003 RMK A01 T01910133  RH  069%=      5-min Rain = 0
KPD3 151327Z 03009KT 19/13 A3003 RMK A01 T01910132  RH  069%=      5-min Rain = 0
KPD3 151328Z 03009KT 19/13 A3003 RMK A01 T01900132  RH  069%=      5-min Rain = 0
KPD3 151329Z 03010KT 19/13 A3003 RMK A01 T01900132  RH  069%=      5-min Rain = 0
KPD3 151330Z 03009KT 19/13 A3003 RMK A01 T01900132  RH  069%=      5-min Rain = 0
KPD3 151331Z 04010KT 19/13 A3003 RMK A01 T01900132  RH  069%=      5-min Rain = 0
KPD3 151332Z 04009KT 19/13 A3003 RMK A01 T01900132  RH  069%=      5-min Rain = 0
KPD3 151333Z 04009KT 19/13 A3003 RMK A01 T01900133  RH  069%=      5-min Rain = 0
KPD3 151334Z 04010KT 19/13 A3003 RMK A01 T01900132  RH  069%=      5-min Rain = 0
KPD3 151335Z 03009KT 19/13 A3003 RMK A01 T01900133  RH  069%=      5-min Rain = 0
KPD3 151336Z 04010KT 19/13 A3003 RMK A01 T01900133  RH  069%=      5-min Rain = 0
KPD3 151337Z 03011KT 19/13 A3003 RMK A01 T01910133  RH  069%=      5-min Rain = 0
KPD3 151338Z 03009KT 19/13 A3003 RMK A01 T01910133  RH  069%=      5-min Rain = 0
KPD3 151339Z 04011KT 19/13 A3003 RMK A01 T01910134  RH  069%=      5-min Rain = 0
KPD3 151340Z 04010KT 19/13 A3003 RMK A01 T01910133  RH  069%=      5-min Rain = 0
KPD3 151341Z 04008KT 19/13 A3003 RMK A01 T01920134  RH  069%=      5-min Rain = 0
KPD3 151342Z 03008KT 19/13 A3003 RMK A01 T01920134  RH  069%=      5-min Rain = 0
KPD3 151343Z 03007KT 19/13 A3003 RMK A01 T01920134  RH  069%=      5-min Rain = 0
KPD3 151344Z 03007KT 19/14 A3003 RMK A01 T01930135  RH  069%=      5-min Rain = 0
KPD3 151345Z 03008KT 19/14 A3003 RMK A01 T01930135  RH  069%=      5-min Rain = 0
KPD3 151346Z 04008KT 19/14 A3003 RMK A01 T01940135  RH  068%=      5-min Rain = 0
KPD3 151347Z 05007KT 20/14 A3003 RMK A01 T01950135  RH  068%=      5-min Rain = 0
KPD3 151348Z 05006KT 20/14 A3003 RMK A01 T01960135  RH  068%=      5-min Rain = 0
KPD3 151349Z 05007KT 20/14 A3003 RMK A01 T01960135  RH  068%=      5-min Rain = 0
KPD3 151350Z 05006KT 20/14 A3003 RMK A01 T01960135  RH  068%=      5-min Rain = 0
KPD3 151351Z 04006KT 20/14 A3003 RMK A01 T01960135  RH  068%=      5-min Rain = 0
KPD3 151352Z 06006KT 20/14 A3003 RMK A01 T01970136  RH  068%=      5-min Rain = 0
KPD3 151353Z 05005KT 20/14 A3003 RMK A01 T01970136  RH  068%=      5-min Rain = 0
KPD3 151354Z 06005KT 20/14 A3003 RMK A01 T01980136  RH  067%=      5-min Rain = 0
KPD3 151355Z 05005KT 20/14 A3003 RMK A01 T01980136  RH  067%=      5-min Rain = 0
KPD3 151356Z 07004KT 20/14 A3004 RMK A01 T01980136  RH  067%=      5-min Rain = 0
KPD3 151357Z 07004KT 20/14 A3004 RMK A01 T01990137  RH  068%=      5-min Rain = 0
KPD3 151358Z 08004KT 20/14 A3004 RMK A01 T02000136  RH  067%=      5-min Rain = 0
KPD3 151359Z 09004KT 20/14 A3003 RMK A01 T02000137  RH  067%=      5-min Rain = 0
KPD3 151400Z 11005KT 20/14 A3003 RMK A01 T01990136  RH  067%=      5-min Rain = 0
KPD3 151401Z 11005KT 20/14 A3003 RMK A01 T01990136  RH  067%=      5-min Rain = 0
KPD3 151402Z 11005KT 20/14 A3003 RMK A01 T01990137  RH  067%=      5-min Rain = 0
KPD3 151403Z 10003KT 20/14 A3003 RMK A01 T01990135  RH  067%=      5-min Rain = 0
KPD3 151404Z 07003KT 20/14 A3003 RMK A01 T01980135  RH  067%=      5-min Rain = 0
KPD3 151405Z 07004KT 20/14 A3003 RMK A01 T01970137  RH  068%=      5-min Rain = 0
KPD3 151406Z 07004KT 20/14 A3004 RMK A01 T01970136  RH  068%=      5-min Rain = 0
KPD3 151407Z 09005KT 20/14 A3003 RMK A01 T01970136  RH  068%=      5-min Rain = 0
KPD3 151408Z 12003KT 20/14 A3003 RMK A01 T01970136  RH  068%=      5-min Rain = 0
KPD3 151409Z 14004KT 20/14 A3003 RMK A01 T01970136  RH  068%=      5-min Rain = 0
KPD3 151410Z 14005KT 20/14 A3003 RMK A01 T01960137  RH  069%=      5-min Rain = 0
KPD3 151411Z 13006KT 20/14 A3003 RMK A01 T01970138  RH  069%=      5-min Rain = 0
KPD3 151412Z 13006KT 20/14 A3003 RMK A01 T01980137  RH  068%=      5-min Rain = 0
KPD3 151413Z 13006KT 20/14 A3003 RMK A01 T01980138  RH  068%=      5-min Rain = 0
KPD3 151414Z 12007KT 20/14 A3003 RMK A01 T01980138  RH  068%=      5-min Rain = 0
KPD3 151415Z 11006KT 20/14 A3004 RMK A01 T01980138  RH  069%=      5-min Rain = 0
KPD3 151416Z 11006KT 20/14 A3004 RMK A01 T01970139  RH  069%=      5-min Rain = 0
KPD3 151417Z 11005KT 20/14 A3004 RMK A01 T01960139  RH  069%=      5-min Rain = 0
KPD3 151418Z 12006KT 20/14 A3003 RMK A01 T01960139  RH  070%=      5-min Rain = 0
KPD3 151419Z 12006KT 20/14 A3003 RMK A01 T01960139  RH  070%=      5-min Rain = 0
KPD3 151420Z 12006KT 20/14 A3003 RMK A01 T01970140  RH  070%=      5-min Rain = 0
KPD3 151421Z 13005KT 20/14 A3003 RMK A01 T01970141  RH  070%=      5-min Rain = 0
KPD3 151422Z 12005KT 20/14 A3003 RMK A01 T01970141  RH  070%=      5-min Rain = 0
KPD3 151423Z 11004KT 20/14 A3003 RMK A01 T01970141  RH  070%=      5-min Rain = 0
KPD3 151424Z 14006KT 20/14 A3003 RMK A01 T01970142  RH  070%=      5-min Rain = 0
KPD3 151425Z 13007KT 20/14 A3003 RMK A01 T01980143  RH  070%=      5-min Rain = 0
KPD3 151426Z 13007KT 20/14 A3004 RMK A01 T01990142  RH  070%=      5-min Rain = 0
KPD3 151427Z 12006KT 20/14 A3003 RMK A01 T01990143  RH  070%=      5-min Rain = 0
KPD3 151428Z 13006KT 20/14 A3003 RMK A01 T01980143  RH  070%=      5-min Rain = 0
KPD3 151429Z 13006KT 20/14 A3003 RMK A01 T01980142  RH  070%=      5-min Rain = 0
KPD3 151430Z 12006KT 20/14 A3003 RMK A01 T01980143  RH  070%=      5-min Rain = 0
KPD3 151431Z 12005KT 20/14 A3003 RMK A01 T01980142  RH  070%=      5-min Rain = 0
KPD3 151432Z 12004KT 20/14 A3003 RMK A01 T01990143  RH  070%=      5-min Rain = 0
KPD3 151433Z 13004KT 20/14 A3003 RMK A01 T01990142  RH  070%=      5-min Rain = 0
KPD3 151434Z 12005KT 20/14 A3003 RMK A01 T01990142  RH  070%=      5-min Rain = 0
KPD3 151435Z 10005KT 20/14 A3003 RMK A01 T01980143  RH  070%=      5-min Rain = 0
KPD3 151436Z 11006KT 20/14 A3003 RMK A01 T01970142  RH  071%=      5-min Rain = 0
KPD3 151437Z 12004KT 20/14 A3003 RMK A01 T01960143  RH  071%=      5-min Rain = 0
KPD3 151438Z 13006KT 20/14 A3003 RMK A01 T01960142  RH  071%=      5-min Rain = 0
KPD3 151439Z 14006KT 20/14 A3004 RMK A01 T01970143  RH  071%=      5-min Rain = 0
KPD3 151440Z 15004KT 20/14 A3004 RMK A01 T01980143  RH  070%=      5-min Rain = 0
KPD3 151441Z 14006KT 20/14 A3003 RMK A01 T01970143  RH  071%=      5-min Rain = 0
KPD3 151442Z 13007KT 20/14 A3003 RMK A01 T01970144  RH  071%=      5-min Rain = 0
KPD3 151443Z 11007KT 20/14 A3003 RMK A01 T01970143  RH  071%=      5-min Rain = 0
KPD3 151444Z 12006KT 20/14 A3003 RMK A01 T01970144  RH  072%=      5-min Rain = 0
KPD3 151445Z 12006KT 20/15 A3003 RMK A01 T01970145  RH  072%=      5-min Rain = 0
KPD3 151446Z 12006KT 20/14 A3003 RMK A01 T01990144  RH  071%=      5-min Rain = 0
KPD3 151447Z 12007KT 20/15 A3003 RMK A01 T02000145  RH  071%=      5-min Rain = 0
KPD3 151448Z 12006KT 20/15 A3003 RMK A01 T02010145  RH  070%=      5-min Rain = 0
KPD3 151449Z 11006KT 20/15 A3003 RMK A01 T02020147  RH  070%=      5-min Rain = 0
KPD3 151450Z 10005KT 20/15 A3003 RMK A01 T02040147  RH  070%=      5-min Rain = 0
KPD3 151451Z 11005KT 21/15 A3003 RMK A01 T02050147  RH  069%=      5-min Rain = 0
KPD3 151452Z 08005KT 21/15 A3003 RMK A01 T02060148  RH  069%=      5-min Rain = 0
KPD3 151453Z 09003KT 21/15 A3003 RMK A01 T02080149  RH  069%=      5-min Rain = 0
KPD3 151454Z 09006KT 21/15 A3004 RMK A01 T02100148  RH  068%=      5-min Rain = 0
KPD3 151455Z 08005KT 21/15 A3004 RMK A01 T02110148  RH  067%=      5-min Rain = 0
KPD3 151456Z 10004KT 21/15 A3004 RMK A01 T02100148  RH  068%=      5-min Rain = 0
KPD3 151457Z 13006KT 21/15 A3003 RMK A01 T02110150  RH  068%=      5-min Rain = 0
KPD3 151458Z 10005KT 21/15 A3003 RMK A01 T02140150  RH  067%=      5-min Rain = 0
KPD3 151459Z 12006KT 22/15 A3003 RMK A01 T02160150  RH  066%=      5-min Rain = 0
KPD3 151500Z 12005KT 22/15 A3004 RMK A01 T02170150  RH  066%=      5-min Rain = 0
KPD3 151501Z 10007KT 22/15 A3004 RMK A01 T02160149  RH  066%=      5-min Rain = 0
KPD3 151502Z 04007KT 22/15 A3004 RMK A01 T02160151  RH  067%=      5-min Rain = 0
KPD3 151503Z 03006KT 22/15 A3004 RMK A01 T02170150  RH  066%=      5-min Rain = 0
KPD3 151504Z 03004KT 22/15 A3003 RMK A01 T02170152  RH  066%=      5-min Rain = 0
KPD3 151505Z 09006KT 22/15 A3003 RMK A01 T02190152  RH  066%=      5-min Rain = 0
KPD3 151506Z 10005KT 22/15 A3003 RMK A01 T02200152  RH  065%=      5-min Rain = 0
KPD3 151507Z 09006KT 22/15 A3003 RMK A01 T02200153  RH  066%=      5-min Rain = 0
KPD3 151508Z 08007KT 22/15 A3003 RMK A01 T02220153  RH  065%=      5-min Rain = 0
KPD3 151509Z 07006KT 22/15 A3003 RMK A01 T02220152  RH  065%=      5-min Rain = 0
KPD3 151510Z 07008KT 22/15 A3004 RMK A01 T02200152  RH  065%=      5-min Rain = 0
KPD3 151511Z 07007KT 22/15 A3004 RMK A01 T02190153  RH  066%=      5-min Rain = 0
KPD3 151512Z 07008KT 22/15 A3004 RMK A01 T02190152  RH  066%=      5-min Rain = 0
KPD3 151513Z 07006KT 22/15 A3004 RMK A01 T02200153  RH  066%=      5-min Rain = 0
KPD3 151514Z 05005KT 22/15 A3004 RMK A01 T02210152  RH  065%=      5-min Rain = 0
KPD3 151515Z 06002KT 22/15 A3003 RMK A01 T02200152  RH  065%=      5-min Rain = 0
KPD3 151516Z 06004KT 22/15 A3003 RMK A01 T02210153  RH  065%=      5-min Rain = 0
KPD3 151517Z 05005KT 22/15 A3003 RMK A01 T02230153  RH  065%=      5-min Rain = 0
KPD3 151518Z 05005KT 22/15 A3003 RMK A01 T02240153  RH  064%=      5-min Rain = 0
KPD3 151519Z 05005KT 22/15 A3003 RMK A01 T02240152  RH  064%=      5-min Rain = 0
KPD3 151520Z 05005KT 22/15 A3004 RMK A01 T02230152  RH  064%=      5-min Rain = 0
KPD3 151521Z 03006KT 22/15 A3004 RMK A01 T02210153  RH  065%=      5-min Rain = 0
KPD3 151522Z 06007KT 22/15 A3004 RMK A01 T02230154  RH  065%=      5-min Rain = 0
KPD3 151523Z 06006KT 22/15 A3004 RMK A01 T02240154  RH  064%=      5-min Rain = 0
KPD3 151524Z 07005KT 23/15 A3004 RMK A01 T02250154  RH  064%=      5-min Rain = 0
KPD3 151525Z 05005KT 23/16 A3004 RMK A01 T02260156  RH  065%=      5-min Rain = 0
KPD3 151526Z 04006KT 23/16 A3004 RMK A01 T02300156  RH  063%=      5-min Rain = 0
KPD3 151527Z 05004KT 23/16 A3004 RMK A01 T02310155  RH  062%=      5-min Rain = 0
KPD3 151528Z 09006KT 23/16 A3004 RMK A01 T02310156  RH  063%=      5-min Rain = 0
KPD3 151529Z 04005KT 23/16 A3004 RMK A01 T02310156  RH  063%=      5-min Rain = 0
KPD3 151530Z 03006KT 23/16 A3004 RMK A01 T02320155  RH  062%=      5-min Rain = 0
KPD3 151531Z 04006KT 23/16 A3004 RMK A01 T02310155  RH  062%=      5-min Rain = 0
KPD3 151532Z 03007KT 23/16 A3004 RMK A01 T02310156  RH  063%=      5-min Rain = 0
KPD3 151533Z 05007KT 23/16 A3004 RMK A01 T02320156  RH  062%=      5-min Rain = 0
KPD3 151534Z 05005KT 23/16 A3004 RMK A01 T02340157  RH  062%=      5-min Rain = 0
KPD3 151535Z 03006KT 23/16 A3004 RMK A01 T02340155  RH  061%=      5-min Rain = 0
KPD3 151536Z 03004KT 23/16 A3004 RMK A01 T02300155  RH  063%=      5-min Rain = 0
KPD3 151537Z 05006KT 23/16 A3004 RMK A01 T02300156  RH  063%=      5-min Rain = 0
KPD3 151538Z 04006KT 23/16 A3004 RMK A01 T02320157  RH  063%=      5-min Rain = 0
KPD3 151539Z 05006KT 24/16 A3004 RMK A01 T02350157  RH  061%=      5-min Rain = 0
KPD3 151540Z 04005KT 24/16 A3004 RMK A01 T02360157  RH  061%=      5-min Rain = 0
KPD3 151541Z 03003KT 24/16 A3004 RMK A01 T02350157  RH  061%=      5-min Rain = 0
KPD3 151542Z 02004KT 23/16 A3004 RMK A01 T02340156  RH  062%=      5-min Rain = 0
KPD3 151543Z 07005KT 23/16 A3004 RMK A01 T02340156  RH  062%=      5-min Rain = 0
KPD3 151544Z 05006KT 23/16 A3004 RMK A01 T02340157  RH  062%=      5-min Rain = 0
KPD3 151545Z 09008KT 24/16 A3004 RMK A01 T02360158  RH  062%=      5-min Rain = 0
KPD3 151546Z 07007KT 24/16 A3004 RMK A01 T02410159  RH  060%=      5-min Rain = 0
KPD3 151547Z 07008KT 24/16 A3004 RMK A01 T02410158  RH  060%=      5-min Rain = 0
KPD3 151548Z 08006KT 24/16 A3004 RMK A01 T02400157  RH  060%=      5-min Rain = 0
KPD3 151549Z 07004KT 24/16 A3004 RMK A01 T02370156  RH  061%=      5-min Rain = 0
KPD3 151550Z 10003KT 23/16 A3004 RMK A01 T02340157  RH  062%=      5-min Rain = 0
KPD3 151551Z 10004KT 23/16 A3004 RMK A01 T02340156  RH  061%=      5-min Rain = 0
KPD3 151552Z 06004KT 23/16 A3004 RMK A01 T02340157  RH  062%=      5-min Rain = 0
KPD3 151553Z 08008KT 24/16 A3004 RMK A01 T02360158  RH  062%=      5-min Rain = 0
KPD3 151554Z 07007KT 24/16 A3004 RMK A01 T02360157  RH  061%=      5-min Rain = 0
KPD3 151555Z 10007KT 24/16 A3004 RMK A01 T02360158  RH  062%=      5-min Rain = 0
KPD3 151556Z 11005KT 24/16 A3004 RMK A01 T02370157  RH  061%=      5-min Rain = 0
KPD3 151557Z 12003KT 24/16 A3004 RMK A01 T02360156  RH  061%=      5-min Rain = 0
KPD3 151558Z 06008KT 23/16 A3004 RMK A01 T02340157  RH  062%=      5-min Rain = 0
KPD3 151559Z 05007KT 23/16 A3004 RMK A01 T02340157  RH  062%=      5-min Rain = 0
KPD3 151600Z 04006KT 23/16 A3004 RMK A01 T02330157  RH  062%=      5-min Rain = 0
KPD3 151601Z 05005KT 23/16 A3004 RMK A01 T02310156  RH  063%=      5-min Rain = 0
KPD3 151602Z 01003KT 23/16 A3004 RMK A01 T02300157  RH  063%=      5-min Rain = 0
KPD3 151603Z 36002KT 23/16 A3004 RMK A01 T02310157  RH  063%=      5-min Rain = 0
KPD3 151604Z 10005KT 23/16 A3004 RMK A01 T02310158  RH  063%=      5-min Rain = 0
KPD3 151605Z 11006KT 23/16 A3004 RMK A01 T02340158  RH  062%=      5-min Rain = 0
KPD3 151606Z 13006KT 24/16 A3004 RMK A01 T02350158  RH  062%=      5-min Rain = 0
KPD3 151607Z 12006KT 24/16 A3004 RMK A01 T02360158  RH  062%=      5-min Rain = 0
KPD3 151608Z 10005KT 24/16 A3004 RMK A01 T02360158  RH  062%=      5-min Rain = 0
KPD3 151609Z 09008KT 24/16 A3004 RMK A01 T02370160  RH  062%=      5-min Rain = 0
KPD3 151610Z 10008KT 24/16 A3004 RMK A01 T02380160  RH  061%=      5-min Rain = 0
KPD3 151611Z 09005KT 24/16 A3004 RMK A01 T02390160  RH  061%=      5-min Rain = 0
KPD3 151612Z 09005KT 24/16 A3004 RMK A01 T02380160  RH  061%=      5-min Rain = 0
KPD3 151613Z 09006KT 24/16 A3004 RMK A01 T02370160  RH  062%=      5-min Rain = 0
KPD3 151614Z 11006KT 24/16 A3004 RMK A01 T02370160  RH  062%=      5-min Rain = 0
KPD3 151615Z 11005KT 24/16 A3004 RMK A01 T02370160  RH  062%=      5-min Rain = 0
KPD3 151616Z 08004KT 24/16 A3004 RMK A01 T02370160  RH  062%=      5-min Rain = 0
KPD3 151617Z 08008KT 24/16 A3004 RMK A01 T02370161  RH  063%=      5-min Rain = 0
KPD3 151618Z 08006KT 24/16 A3004 RMK A01 T02360160  RH  062%=      5-min Rain = 0
KPD3 151619Z 09005KT 24/16 A3004 RMK A01 T02350161  RH  063%=      5-min Rain = 0
KPD3 151620Z 07008KT 24/16 A3004 RMK A01 T02350162  RH  063%=      5-min Rain = 0
KPD3 151621Z 06008KT 24/16 A3004 RMK A01 T02380162  RH  062%=      5-min Rain = 0
KPD3 151622Z 05006KT 24/16 A3004 RMK A01 T02390162  RH  062%=      5-min Rain = 0
KPD3 151623Z 06005G10KT 24/16 A3004 RMK A01 T02370162  RH  063%=      5-min Rain = 0
KPD3 151624Z 08009KT 24/16 A3004 RMK A01 T02370162  RH  063%=      5-min Rain = 0
KPD3 151625Z 05010KT 24/16 A3004 RMK A01 T02390162  RH  062%=      5-min Rain = 0
KPD3 151626Z 04008KT 24/16 A3004 RMK A01 T02400162  RH  062%=      5-min Rain = 0
KPD3 151627Z 04010KT 24/16 A3004 RMK A01 T02380162  RH  062%=      5-min Rain = 0
KPD3 151628Z 04008KT 24/16 A3004 RMK A01 T02380162  RH  062%=      5-min Rain = 0
KPD3 151629Z 07009KT 24/16 A3004 RMK A01 T02390162  RH  062%=      5-min Rain = 0
KPD3 151630Z 08009KT 24/16 A3004 RMK A01 T02390163  RH  062%=      5-min Rain = 0
KPD3 151631Z 07009KT 24/16 A3004 RMK A01 T02400163  RH  062%=      5-min Rain = 0
KPD3 151632Z 07011KT 24/16 A3004 RMK A01 T02390164  RH  063%=      5-min Rain = 0
KPD3 151633Z 07010KT 24/17 A3004 RMK A01 T02390165  RH  063%=      5-min Rain = 0
KPD3 151634Z 04011KT 24/17 A3004 RMK A01 T02390165  RH  063%=      5-min Rain = 0
KPD3 151635Z 04011KT 24/16 A3004 RMK A01 T02370164  RH  063%=      5-min Rain = 0
KPD3 151636Z 06010KT 24/16 A3004 RMK A01 T02370164  RH  064%=      5-min Rain = 0
KPD3 151637Z 05010KT 24/16 A3004 RMK A01 T02360164  RH  064%=      5-min Rain = 0
KPD3 151638Z 04008KT 24/17 A3004 RMK A01 T02360165  RH  064%=      5-min Rain = 0
KPD3 151639Z 08009KT 24/17 A3004 RMK A01 T02350166  RH  065%=      5-min Rain = 0
KPD3 151640Z 07008KT 23/16 A3004 RMK A01 T02330164  RH  065%=      5-min Rain = 0
KPD3 151641Z 06006KT 23/17 A3004 RMK A01 T02310165  RH  066%=      5-min Rain = 0
KPD3 151642Z 06008KT 23/17 A3005 RMK A01 T02310165  RH  066%=      5-min Rain = 0
KPD3 151643Z 05011KT 23/17 A3005 RMK A01 T02340167  RH  066%=      5-min Rain = 0
KPD3 151644Z 05013KT 23/17 A3005 RMK A01 T02340169  RH  067%=      5-min Rain = 0
KPD3 151645Z 05014KT 23/17 A3005 RMK A01 T02330169  RH  067%=      5-min Rain = 0
KPD3 151646Z 04012KT 23/17 A3004 RMK A01 T02300168  RH  068%=      5-min Rain = 0
KPD3 151647Z 04012KT 23/17 A3004 RMK A01 T02300169  RH  068%=      5-min Rain = 0
KPD3 151648Z 06011KT 23/17 A3004 RMK A01 T02300168  RH  068%=      5-min Rain = 0
KPD3 151649Z 05010KT 23/17 A3005 RMK A01 T02310169  RH  068%=      5-min Rain = 0
KPD3 151650Z 05009KT 23/17 A3005 RMK A01 T02330170  RH  067%=      5-min Rain = 0
KPD3 151651Z 07012KT 24/17 A3005 RMK A01 T02350169  RH  066%=      5-min Rain = 0
KPD3 151652Z 07011KT 24/17 A3005 RMK A01 T02350168  RH  066%=      5-min Rain = 0
KPD3 151653Z 06010KT 23/17 A3005 RMK A01 T02340169  RH  067%=      5-min Rain = 0
KPD3 151654Z 06012KT 24/17 A3005 RMK A01 T02350170  RH  067%=      5-min Rain = 0
KPD3 151655Z 06013KT 24/17 A3005 RMK A01 T02350169  RH  066%=      5-min Rain = 0
KPD3 151656Z 05010KT 24/17 A3005 RMK A01 T02370172  RH  067%=      5-min Rain = 0
KPD3 151657Z 04011KT 24/17 A3005 RMK A01 T02400170  RH  065%=      5-min Rain = 0
KPD3 151658Z 06010KT 24/17 A3005 RMK A01 T02410170  RH  065%=      5-min Rain = 0
KPD3 151659Z 04011KT 24/17 A3005 RMK A01 T02430169  RH  063%=      5-min Rain = 0
KPD3 151700Z 04009KT 24/17 A3005 RMK A01 T02410169  RH  064%=      5-min Rain = 0
KPD3 151701Z 05011KT 24/17 A3005 RMK A01 T02400170  RH  065%=      5-min Rain = 0
KPD3 151702Z 06011KT 24/17 A3005 RMK A01 T02430170  RH  063%=      5-min Rain = 0
KPD3 151703Z 06012KT 25/17 A3005 RMK A01 T02450170  RH  063%=      5-min Rain = 0
KPD3 151704Z 07011KT 24/17 A3005 RMK A01 T02440170  RH  063%=      5-min Rain = 0
KPD3 151705Z 06012KT 24/17 A3005 RMK A01 T02430169  RH  063%=      5-min Rain = 0
KPD3 151706Z 07011KT 24/17 A3005 RMK A01 T02430169  RH  063%=      5-min Rain = 0
KPD3 151707Z 06011KT 24/17 A3005 RMK A01 T02430168  RH  063%=      5-min Rain = 0
KPD3 151708Z 06008KT 24/17 A3005 RMK A01 T02410167  RH  064%=      5-min Rain = 0
KPD3 151709Z 07007KT 24/17 A3005 RMK A01 T02390169  RH  065%=      5-min Rain = 0
KPD3 151710Z 05010KT 24/17 A3005 RMK A01 T02420169  RH  064%=      5-min Rain = 0
KPD3 151711Z 05013KT 24/17 A3005 RMK A01 T02440168  RH  062%=      5-min Rain = 0
KPD3 151712Z 05010KT 24/17 A3005 RMK A01 T02440168  RH  062%=      5-min Rain = 0
KPD3 151713Z 05009KT 25/17 A3005 RMK A01 T02460171  RH  063%=      5-min Rain = 0
KPD3 151714Z 04012KT 25/17 A3005 RMK A01 T02490168  RH  061%=      5-min Rain = 0
KPD3 151715Z 05013KT 25/17 A3005 RMK A01 T02480169  RH  062%=      5-min Rain = 0
KPD3 151716Z 04013G18KT 25/17 A3005 RMK A01 T02510169  RH  061%=      5-min Rain = 0
KPD3 151717Z 04013KT 25/17 A3005 RMK A01 T02520169  RH  060%=      5-min Rain = 0
KPD3 151718Z 05013KT 25/17 A3005 RMK A01 T02490167  RH  060%=      5-min Rain = 0
KPD3 151719Z 04011KT 25/17 A3005 RMK A01 T02470169  RH  062%=      5-min Rain = 0
KPD3 151720Z 04013KT 25/17 A3005 RMK A01 T02480167  RH  061%=      5-min Rain = 0
KPD3 151721Z 04010KT 25/17 A3005 RMK A01 T02450167  RH  062%=      5-min Rain = 0
KPD3 151722Z 04013KT 25/17 A3005 RMK A01 T02450167  RH  062%=      5-min Rain = 0
KPD3 151723Z 06013KT 25/17 A3005 RMK A01 T02450167  RH  062%=      5-min Rain = 0
KPD3 151724Z 05010KT 24/17 A3006 RMK A01 T02420167  RH  063%=      5-min Rain = 0
KPD3 151725Z 03011KT 24/17 A3005 RMK A01 T02410167  RH  063%=      5-min Rain = 0
KPD3 151726Z 04012KT 24/17 A3006 RMK A01 T02410166  RH  063%=      5-min Rain = 0
KPD3 151727Z 04009KT 24/17 A3006 RMK A01 T02400167  RH  064%=      5-min Rain = 0
KPD3 151728Z 05012KT 24/17 A3006 RMK A01 T02400167  RH  064%=      5-min Rain = 0
KPD3 151729Z 06013KT 24/17 A3006 RMK A01 T02400166  RH  063%=      5-min Rain = 0
KPD3 151730Z 05013KT 24/17 A3006 RMK A01 T02380166  RH  064%=      5-min Rain = 0
KPD3 151731Z 06011KT 24/17 A3006 RMK A01 T02350165  RH  065%=      5-min Rain = 0
KPD3 151732Z 04013KT 24/17 A3006 RMK A01 T02350166  RH  065%=      5-min Rain = 0
KPD3 151733Z 04012KT 24/17 A3006 RMK A01 T02350165  RH  065%=      5-min Rain = 0
KPD3 151734Z 03012KT 24/16 A3005 RMK A01 T02350164  RH  065%=      5-min Rain = 0
KPD3 151735Z 04014KT 24/17 A3005 RMK A01 T02350165  RH  065%=      5-min Rain = 0
KPD3 151736Z 04013KT 24/17 A3006 RMK A01 T02370165  RH  064%=      5-min Rain = 0
KPD3 151737Z 04013KT 24/17 A3006 RMK A01 T02390165  RH  063%=      5-min Rain = 0
KPD3 151738Z 07013KT 24/17 A3006 RMK A01 T02390165  RH  063%=      5-min Rain = 0
KPD3 151739Z 06011KT 24/17 A3006 RMK A01 T02390165  RH  063%=      5-min Rain = 0
KPD3 151740Z 05011KT 24/17 A3006 RMK A01 T02390166  RH  063%=      5-min Rain = 0
KPD3 151741Z 06013KT 24/17 A3006 RMK A01 T02390165  RH  063%=      5-min Rain = 0
KPD3 151742Z 04011KT 24/16 A3006 RMK A01 T02380164  RH  063%=      5-min Rain = 0
KPD3 151743Z 03012KT 24/16 A3006 RMK A01 T02380164  RH  063%=      5-min Rain = 0
KPD3 151744Z 04010KT 24/16 A3006 RMK A01 T02380164  RH  063%=      5-min Rain = 0
KPD3 151745Z 04012KT 24/16 A3006 RMK A01 T02390164  RH  063%=      5-min Rain = 0
KPD3 151746Z 04009KT 24/16 A3006 RMK A01 T02390163  RH  063%=      5-min Rain = 0
KPD3 151747Z 03008KT 24/16 A3006 RMK A01 T02360163  RH  063%=      5-min Rain = 0
KPD3 151748Z 04010KT 24/16 A3006 RMK A01 T02360163  RH  064%=      5-min Rain = 0
KPD3 151749Z 05011KT 24/16 A3006 RMK A01 T02380163  RH  063%=      5-min Rain = 0
KPD3 151750Z 05010KT 24/16 A3006 RMK A01 T02390163  RH  062%=      5-min Rain = 0
KPD3 151751Z 05010KT 24/16 A3006 RMK A01 T02390163  RH  062%=      5-min Rain = 0
KPD3 151752Z 05011KT 24/16 A3006 RMK A01 T02390162  RH  062%=      5-min Rain = 0
KPD3 151753Z 05009KT 24/16 A3006 RMK A01 T02390163  RH  062%=      5-min Rain = 0
KPD3 151754Z 06011KT 24/16 A3006 RMK A01 T02400162  RH  061%=      5-min Rain = 0
KPD3 151755Z 06011KT 24/16 A3006 RMK A01 T02380161  RH  062%=      5-min Rain = 0
KPD3 151756Z 05012G17KT 24/16 A3006 RMK A01 T02370161  RH  063%=      5-min Rain = 0
KPD3 151757Z 04010KT 24/16 A3006 RMK A01 T02380161  RH  062%=      5-min Rain = 0
KPD3 151758Z 04012KT 24/16 A3006 RMK A01 T02390161  RH  062%=      5-min Rain = 0
KPD3 151759Z 03011KT 24/16 A3005 RMK A01 T02400161  RH  061%=      5-min Rain = 0
KPD3 151800Z 04010KT 24/16 A3005 RMK A01 T02400163  RH  062%=      5-min Rain = 0
KPD3 151801Z 04012KT 25/16 A3005 RMK A01 T02450163  RH  060%=      5-min Rain = 0
KPD3 151802Z 03013KT 25/16 A3005 RMK A01 T02480163  RH  059%=      5-min Rain = 0
KPD3 151803Z 03013KT 25/16 A3005 RMK A01 T02460161  RH  059%=      5-min Rain = 0
KPD3 151804Z 03012KT 24/16 A3005 RMK A01 T02430161  RH  060%=      5-min Rain = 0
KPD3 151805Z 04011KT 24/16 A3005 RMK A01 T02430161  RH  060%=      5-min Rain = 0
KPD3 151806Z 04012KT 24/16 A3005 RMK A01 T02440162  RH  060%=      5-min Rain = 0
KPD3 151807Z 04011KT 25/16 A3006 RMK A01 T02450162  RH  060%=      5-min Rain = 0
KPD3 151808Z 05012KT 25/16 A3006 RMK A01 T02450161  RH  059%=      5-min Rain = 0
KPD3 151809Z 04013KT 24/16 A3006 RMK A01 T02430161  RH  060%=      5-min Rain = 0
KPD3 151810Z 04013KT 24/16 A3006 RMK A01 T02420160  RH  060%=      5-min Rain = 0
KPD3 151811Z 02009KT 24/16 A3006 RMK A01 T02410160  RH  061%=      5-min Rain = 0
KPD3 151812Z 03007G12KT 24/16 A3006 RMK A01 T02410161  RH  061%=      5-min Rain = 0
KPD3 151813Z 03011KT 24/16 A3006 RMK A01 T02420161  RH  061%=      5-min Rain = 0
KPD3 151814Z 03010KT 24/16 A3006 RMK A01 T02430161  RH  060%=      5-min Rain = 0
KPD3 151815Z 03010KT 24/16 A3006 RMK A01 T02430161  RH  060%=      5-min Rain = 0
KPD3 151816Z 04009KT 24/16 A3006 RMK A01 T02440162  RH  060%=      5-min Rain = 0
KPD3 151817Z 04010KT 25/16 A3006 RMK A01 T02480163  RH  059%=      5-min Rain = 0
KPD3 151818Z 05009KT 25/16 A3006 RMK A01 T02480161  RH  058%=      5-min Rain = 0
KPD3 151819Z 06010KT 25/16 A3006 RMK A01 T02460162  RH  059%=      5-min Rain = 0
KPD3 151820Z 07011KT 25/16 A3006 RMK A01 T02450161  RH  060%=      5-min Rain = 0
KPD3 151821Z 08010KT 24/16 A3006 RMK A01 T02440161  RH  060%=      5-min Rain = 0
KPD3 151822Z 05011KT 24/16 A3006 RMK A01 T02440163  RH  061%=      5-min Rain = 0
KPD3 151823Z 07011G16KT 25/16 A3006 RMK A01 T02470164  RH  060%=      5-min Rain = 0
KPD3 151824Z 08010KT 26/17 A3006 RMK A01 T02550167  RH  058%=      5-min Rain = 0
KPD3 151825Z 07011KT 26/17 A3006 RMK A01 T02580166  RH  057%=      5-min Rain = 0
KPD3 151826Z 07008KT 26/17 A3005 RMK A01 T02590166  RH  056%=      5-min Rain = 0
KPD3 151827Z 06011KT 26/17 A3005 RMK A01 T02580165  RH  056%=      5-min Rain = 0
KPD3 151828Z 05011KT 26/16 A3005 RMK A01 T02550162  RH  056%=      5-min Rain = 0
KPD3 151829Z 05011KT 25/16 A3005 RMK A01 T02520163  RH  058%=      5-min Rain = 0
KPD3 151830Z 06010KT 25/17 A3005 RMK A01 T02540165  RH  058%=      5-min Rain = 0
KPD3 151831Z 05011KT 26/16 A3005 RMK A01 T02570164  RH  057%=      5-min Rain = 0
KPD3 151832Z 03013KT 26/17 A3005 RMK A01 T02550165  RH  057%=      5-min Rain = 0
KPD3 151833Z 04011KT 26/17 A3005 RMK A01 T02550165  RH  057%=      5-min Rain = 0
KPD3 151834Z 04012KT 26/17 A3005 RMK A01 T02580165  RH  057%=      5-min Rain = 0
KPD3 151835Z 03010KT 26/16 A3005 RMK A01 T02560164  RH  057%=      5-min Rain = 0
KPD3 151836Z 05013KT 25/17 A3005 RMK A01 T02530165  RH  058%=      5-min Rain = 0
KPD3 151837Z 04009G14KT 25/16 A3005 RMK A01 T02490161  RH  058%=      5-min Rain = 0
KPD3 151838Z 03012G17KT 24/16 A3005 RMK A01 T02440162  RH  060%=      5-min Rain = 0
KPD3 151839Z 03011G17KT 24/16 A3005 RMK A01 T02420162  RH  061%=      5-min Rain = 0
KPD3 151840Z 05014KT 24/16 A3005 RMK A01 T02410163  RH  062%=      5-min Rain = 0
KPD3 151841Z 03012KT 24/16 A3005 RMK A01 T02440163  RH  061%=      5-min Rain = 0
KPD3 151842Z 03011KT 24/16 A3005 RMK A01 T02420162  RH  061%=      5-min Rain = 0
KPD3 151843Z 04011G17KT 24/16 A3005 RMK A01 T02410164  RH  062%=      5-min Rain = 0
KPD3 151844Z 05016KT 24/17 A3005 RMK A01 T02440165  RH  061%=      5-min Rain = 0
KPD3 151845Z 05014KT 25/17 A3005 RMK A01 T02460165  RH  060%=      5-min Rain = 0
KPD3 151846Z 03013KT 25/17 A3005 RMK A01 T02470166  RH  061%=      5-min Rain = 0
KPD3 151847Z 03011KT 25/17 A3005 RMK A01 T02490165  RH  059%=      5-min Rain = 0
KPD3 151848Z 02010KT 24/16 A3005 RMK A01 T02440163  RH  061%=      5-min Rain = 0
KPD3 151849Z 04010KT 25/17 A3005 RMK A01 T02450166  RH  061%=      5-min Rain = 0
KPD3 151850Z 06012G17KT 25/17 A3005 RMK A01 T02470165  RH  060%=      5-min Rain = 0
KPD3 151851Z 05012KT 25/16 A3005 RMK A01 T02460163  RH  060%=      5-min Rain = 0
KPD3 151852Z 04011KT 24/16 A3005 RMK A01 T02430164  RH  061%=      5-min Rain = 0
KPD3 151853Z 06009KT 25/17 A3005 RMK A01 T02450166  RH  061%=      5-min Rain = 0
KPD3 151854Z 05010KT 25/17 A3005 RMK A01 T02480166  RH  061%=      5-min Rain = 0
KPD3 151855Z 04011KT 25/17 A3005 RMK A01 T02490167  RH  060%=      5-min Rain = 0
KPD3 151856Z 03011KT 25/17 A3005 RMK A01 T02500165  RH  059%=      5-min Rain = 0
KPD3 151857Z 05012KT 25/17 A3005 RMK A01 T02490166  RH  060%=      5-min Rain = 0
KPD3 151858Z 04011G16KT 25/17 A3005 RMK A01 T02530166  RH  059%=      5-min Rain = 0
KPD3 151859Z 04012KT 26/17 A3005 RMK A01 T02550168  RH  059%=      5-min Rain = 0
KPD3 151900Z 04009KT 26/17 A3005 RMK A01 T02560166  RH  057%=      5-min Rain = 0
KPD3 151901Z 06006KT 25/17 A3005 RMK A01 T02540167  RH  058%=      5-min Rain = 0
KPD3 151902Z 06009KT 25/17 A3005 RMK A01 T02540167  RH  059%=      5-min Rain = 0
KPD3 151903Z 06011KT 26/17 A3005 RMK A01 T02570169  RH  058%=      5-min Rain = 0
KPD3 151904Z 07011KT 26/17 A3005 RMK A01 T02590166  RH  056%=      5-min Rain = 0
KPD3 151905Z 04010KT 25/17 A3005 RMK A01 T02540166  RH  058%=      5-min Rain = 0
KPD3 151906Z 04008KT 25/17 A3005 RMK A01 T02520166  RH  059%=      5-min Rain = 0
KPD3 151907Z 04008KT 25/17 A3005 RMK A01 T02510165  RH  059%=      5-min Rain = 0
KPD3 151908Z 05011KT 25/17 A3005 RMK A01 T02500167  RH  060%=      5-min Rain = 0
KPD3 151909Z 07011KT 26/17 A3005 RMK A01 T02550168  RH  059%=      5-min Rain = 0
KPD3 151910Z 05011KT 25/17 A3005 RMK A01 T02540166  RH  058%=      5-min Rain = 0
KPD3 151911Z 05010KT 25/17 A3005 RMK A01 T02510167  RH  060%=      5-min Rain = 0
KPD3 151912Z 05006KT 25/17 A3005 RMK A01 T02510166  RH  059%=      5-min Rain = 0
KPD3 151913Z 05008KT 25/17 A3005 RMK A01 T02520167  RH  059%=      5-min Rain = 0
KPD3 151914Z 04009KT 25/17 A3005 RMK A01 T02530167  RH  059%=      5-min Rain = 0
KPD3 151915Z 03009KT 25/17 A3005 RMK A01 T02530166  RH  058%=      5-min Rain = 0
KPD3 151916Z 04010KT 25/17 A3005 RMK A01 T02540168  RH  059%=      5-min Rain = 0
KPD3 151917Z 04009KT 26/17 A3005 RMK A01 T02590168  RH  057%=      5-min Rain = 0
KPD3 151918Z 03006KT 26/17 A3005 RMK A01 T02590167  RH  057%=      5-min Rain = 0
KPD3 151919Z 03008G14KT 26/17 A3005 RMK A01 T02570167  RH  057%=      5-min Rain = 0
KPD3 151920Z 04013KT 26/17 A3004 RMK A01 T02590167  RH  057%=      5-min Rain = 0
KPD3 151921Z 06012KT 26/17 A3005 RMK A01 T02610167  RH  056%=      5-min Rain = 0
KPD3 151922Z 05010KT 26/17 A3005 RMK A01 T02580166  RH  057%=      5-min Rain = 0
KPD3 151923Z 04007KT 25/17 A3005 RMK A01 T02540166  RH  058%=      5-min Rain = 0
KPD3 151924Z 03007KT 25/17 A3004 RMK A01 T02540168  RH  059%=      5-min Rain = 0
KPD3 151925Z 06009KT 26/17 A3005 RMK A01 T02570168  RH  058%=      5-min Rain = 0
KPD3 151926Z 07011KT 26/16 A3005 RMK A01 T02550164  RH  057%=      5-min Rain = 0
KPD3 151927Z 06006G11KT 25/16 A3005 RMK A01 T02500163  RH  058%=      5-min Rain = 0
KPD3 151928Z 07009KT 25/17 A3005 RMK A01 T02470165  RH  060%=      5-min Rain = 0
KPD3 151929Z 05007KT 25/17 A3005 RMK A01 T02530167  RH  059%=      5-min Rain = 0
KPD3 151930Z 03004KT 26/17 A3005 RMK A01 T02560168  RH  058%=      5-min Rain = 0
KPD3 151931Z 02004KT 26/17 A3004 RMK A01 T02580166  RH  057%=      5-min Rain = 0
KPD3 151932Z 06003KT 26/17 A3004 RMK A01 T02570167  RH  057%=      5-min Rain = 0
KPD3 151933Z 06009KT 26/17 A3004 RMK A01 T02590170  RH  058%=      5-min Rain = 0
KPD3 151934Z 06010KT 27/17 A3004 RMK A01 T02660168  RH  055%=      5-min Rain = 0
KPD3 151935Z 06011KT 27/17 A3004 RMK A01 T02670168  RH  054%=      5-min Rain = 0
KPD3 151936Z 07010KT 26/17 A3005 RMK A01 T02630165  RH  055%=      5-min Rain = 0
KPD3 151937Z 07008KT 26/16 A3004 RMK A01 T02570163  RH  056%=      5-min Rain = 0
KPD3 151938Z 09006KT 25/16 A3004 RMK A01 T02520163  RH  058%=      5-min Rain = 0
KPD3 151939Z 11005KT 25/16 A3004 RMK A01 T02510164  RH  059%=      5-min Rain = 0
KPD3 151940Z 09011KT 25/17 A3004 RMK A01 T02520165  RH  059%=      5-min Rain = 0
KPD3 151941Z 09008KT 25/16 A3004 RMK A01 T02520164  RH  058%=      5-min Rain = 0
KPD3 151942Z 06011KT 25/17 A3004 RMK A01 T02500165  RH  059%=      5-min Rain = 0
KPD3 151943Z 05012KT 25/17 A3004 RMK A01 T02500165  RH  059%=      5-min Rain = 0
KPD3 151944Z 05010KT 25/16 A3004 RMK A01 T02490164  RH  059%=      5-min Rain = 0
KPD3 151945Z 07008KT 25/16 A3004 RMK A01 T02460164  RH  060%=      5-min Rain = 0
KPD3 151946Z 06010KT 25/16 A3004 RMK A01 T02450164  RH  061%=      5-min Rain = 0
KPD3 151947Z 07009KT 25/17 A3004 RMK A01 T02470166  RH  060%=      5-min Rain = 0
KPD3 151948Z 08008KT 25/17 A3004 RMK A01 T02530167  RH  059%=      5-min Rain = 0
KPD3 151949Z 09006KT 26/17 A3004 RMK A01 T02550167  RH  058%=      5-min Rain = 0
KPD3 151950Z 04006KT 26/17 A3004 RMK A01 T02570168  RH  058%=      5-min Rain = 0
KPD3 151951Z 04007KT 26/17 A3004 RMK A01 T02590167  RH  057%=      5-min Rain = 0
KPD3 151952Z 05012KT 26/17 A3004 RMK A01 T02610166  RH  056%=      5-min Rain = 0
KPD3 151953Z 04009KT 26/17 A3004 RMK A01 T02620165  RH  055%=      5-min Rain = 0
KPD3 151954Z 06005KT 26/17 A3004 RMK A01 T02570165  RH  057%=      5-min Rain = 0
KPD3 151955Z 03006KT 26/17 A3004 RMK A01 T02550165  RH  057%=      5-min Rain = 0
KPD3 151956Z 05007G12KT 26/17 A3004 RMK A01 T02550167  RH  058%=      5-min Rain = 0
KPD3 151957Z 06012KT 26/17 A3004 RMK A01 T02570167  RH  058%=      5-min Rain = 0
KPD3 151958Z 06009KT 26/17 A3004 RMK A01 T02580167  RH  057%=      5-min Rain = 0
KPD3 151959Z 06010KT 26/17 A3004 RMK A01 T02610168  RH  057%=      5-min Rain = 0
KPD3 152000Z 05006KT 26/17 A3004 RMK A01 T02600167  RH  057%=      5-min Rain = 0
KPD3 152001Z 07011KT 26/17 A3003 RMK A01 T02590166  RH  056%=      5-min Rain = 0
KPD3 152002Z 06008KT 26/17 A3003 RMK A01 T02580167  RH  057%=      5-min Rain = 0
KPD3 152003Z 07007KT 26/17 A3003 RMK A01 T02640170  RH  056%=      5-min Rain = 0
KPD3 152004Z 07009KT 27/17 A3003 RMK A01 T02690170  RH  055%=      5-min Rain = 0
KPD3 152005Z 06008KT 27/17 A3003 RMK A01 T02670166  RH  054%=      5-min Rain = 0
KPD3 152006Z 08008KT 26/17 A3003 RMK A01 T02620166  RH  055%=      5-min Rain = 0
KPD3 152007Z 09012KT 26/17 A3003 RMK A01 T02610166  RH  056%=      5-min Rain = 0
KPD3 152008Z 08009KT 26/17 A3003 RMK A01 T02620166  RH  056%=      5-min Rain = 0
KPD3 152009Z 07006KT 26/17 A3003 RMK A01 T02630167  RH  056%=      5-min Rain = 0
KPD3 152010Z 08007KT 26/17 A3003 RMK A01 T02610166  RH  056%=      5-min Rain = 0
KPD3 152011Z 08005KT 26/17 A3003 RMK A01 T02600165  RH  056%=      5-min Rain = 0
KPD3 152012Z 07007KT 26/17 A3002 RMK A01 T02580167  RH  057%=      5-min Rain = 0
KPD3 152013Z 05009KT 26/17 A3002 RMK A01 T02610167  RH  056%=      5-min Rain = 0
KPD3 152014Z 06009KT 27/17 A3002 RMK A01 T02660168  RH  055%=      5-min Rain = 0
KPD3 152015Z 06010KT 27/17 A3002 RMK A01 T02680168  RH  054%=      5-min Rain = 0
KPD3 152016Z 03009KT 27/17 A3002 RMK A01 T02690166  RH  053%=      5-min Rain = 0
KPD3 152017Z 05007KT 27/17 A3002 RMK A01 T02660165  RH  054%=      5-min Rain = 0
KPD3 152018Z 06007KT 26/16 A3002 RMK A01 T02630164  RH  054%=      5-min Rain = 0
KPD3 152019Z 05006KT 26/17 A3002 RMK A01 T02610165  RH  055%=      5-min Rain = 0
KPD3 152020Z 07010KT 26/17 A3002 RMK A01 T02590165  RH  056%=      5-min Rain = 0
KPD3 152021Z 06009KT 26/16 A3002 RMK A01 T02570164  RH  056%=      5-min Rain = 0
KPD3 152022Z 07006KT 26/17 A3002 RMK A01 T02580166  RH  057%=      5-min Rain = 0
KPD3 152023Z 06005KT 26/17 A3002 RMK A01 T02620165  RH  055%=      5-min Rain = 0
KPD3 152024Z 06008KT 26/17 A3002 RMK A01 T02630167  RH  056%=      5-min Rain = 0
KPD3 152025Z 06008KT 27/17 A3002 RMK A01 T02690169  RH  054%=      5-min Rain = 0
KPD3 152026Z 07006KT 27/17 A3002 RMK A01 T02710167  RH  053%=      5-min Rain = 0
KPD3 152027Z 07006KT 27/17 A3002 RMK A01 T02680166  RH  054%=      5-min Rain = 0
KPD3 152028Z 07010KT 27/17 A3002 RMK A01 T02660166  RH  054%=      5-min Rain = 0
KPD3 152029Z 08008KT 26/16 A3002 RMK A01 T02640163  RH  054%=      5-min Rain = 0
KPD3 152030Z 08006KT 26/16 A3002 RMK A01 T02580162  RH  055%=      5-min Rain = 0
KPD3 152031Z 06007KT 26/16 A3002 RMK A01 T02560162  RH  056%=      5-min Rain = 0
KPD3 152032Z 05006KT 26/16 A3002 RMK A01 T02550161  RH  056%=      5-min Rain = 0
KPD3 152033Z 04007KT 26/16 A3002 RMK A01 T02550164  RH  057%=      5-min Rain = 0
KPD3 152034Z 02006KT 26/17 A3002 RMK A01 T02560165  RH  057%=      5-min Rain = 0
KPD3 152035Z 03004KT 26/16 A3002 RMK A01 T02570164  RH  056%=      5-min Rain = 0
KPD3 152036Z 03007KT 26/17 A3002 RMK A01 T02580165  RH  057%=      5-min Rain = 0
KPD3 152037Z 05004KT 26/17 A3002 RMK A01 T02610168  RH  057%=      5-min Rain = 0
KPD3 152038Z 06008KT 27/17 A3001 RMK A01 T02660166  RH  054%=      5-min Rain = 0
KPD3 152039Z 07009KT 27/16 A3001 RMK A01 T02680164  RH  053%=      5-min Rain = 0
KPD3 152040Z 06007KT 27/16 A3001 RMK A01 T02660163  RH  053%=      5-min Rain = 0
KPD3 152041Z 05006KT 27/16 A3001 RMK A01 T02650162  RH  053%=      5-min Rain = 0
KPD3 152042Z 08005KT 26/16 A3001 RMK A01 T02620162  RH  054%=      5-min Rain = 0
KPD3 152043Z 11006KT 26/16 A3001 RMK A01 T02620162  RH  054%=      5-min Rain = 0
KPD3 152044Z 08005KT 26/16 A3001 RMK A01 T02630163  RH  054%=      5-min Rain = 0
KPD3 152045Z 06008KT 27/17 A3001 RMK A01 T02660166  RH  054%=      5-min Rain = 0
KPD3 152046Z 06010KT 27/17 A3001 RMK A01 T02710166  RH  053%=      5-min Rain = 0
KPD3 152047Z 05011KT 28/16 A3001 RMK A01 T02750163  RH  051%=      5-min Rain = 0
KPD3 152048Z 05010KT 27/16 A3001 RMK A01 T02740163  RH  051%=      5-min Rain = 0
KPD3 152049Z 06007KT 27/16 A3001 RMK A01 T02720161  RH  051%=      5-min Rain = 0
KPD3 152050Z 05007KT 27/16 A3001 RMK A01 T02710163  RH  051%=      5-min Rain = 0
KPD3 152051Z 06005KT 27/16 A3001 RMK A01 T02700163  RH  052%=      5-min Rain = 0
KPD3 152052Z 05006KT 27/16 A3001 RMK A01 T02690163  RH  052%=      5-min Rain = 0
KPD3 152053Z 04003KT 27/16 A3001 RMK A01 T02690162  RH  052%=      5-min Rain = 0
KPD3 152054Z 07005KT 27/16 A3001 RMK A01 T02690162  RH  052%=      5-min Rain = 0
KPD3 152055Z 08004KT 27/16 A3001 RMK A01 T02690163  RH  052%=      5-min Rain = 0
KPD3 152056Z 12007KT 27/16 A3001 RMK A01 T02700162  RH  052%=      5-min Rain = 0
KPD3 152057Z 13006KT 28/16 A3001 RMK A01 T02750161  RH  050%=      5-min Rain = 0
KPD3 152058Z 14003KT 28/16 A30 RMK A01 T02770162  RH  050%=      5-min Rain = 0
KPD3 152059Z 10005KT 28/16 A30 RMK A01 T02790162  RH  049%=      5-min Rain = 0
KPD3 152100Z 11006KT 28/16 A30 RMK A01 T02790163  RH  049%=      5-min Rain = 0
KPD3 152101Z 13006KT 28/16 A30 RMK A01 T02810162  RH  048%=      5-min Rain = 0
KPD3 152102Z 10004KT 28/16 A30 RMK A01 T02820161  RH  048%=      5-min Rain = 0
KPD3 152103Z 10008KT 28/16 A30 RMK A01 T02810164  RH  049%=      5-min Rain = 0
KPD3 152104Z 07009KT 28/17 A30 RMK A01 T02820165  RH  049%=      5-min Rain = 0
KPD3 152105Z 07009KT 28/16 A30 RMK A01 T02810162  RH  049%=      5-min Rain = 0
KPD3 152106Z 07006KT 27/16 A30 RMK A01 T02740160  RH  050%=      5-min Rain = 0
KPD3 152107Z 08009KT 27/16 A30 RMK A01 T02700161  RH  051%=      5-min Rain = 0
KPD3 152108Z 08007KT 27/16 A30 RMK A01 T02670159  RH  052%=      5-min Rain = 0
KPD3 152109Z 07005KT 27/16 A30 RMK A01 T02650159  RH  052%=      5-min Rain = 0
KPD3 152110Z 11004KT 26/16 A30 RMK A01 T02640159  RH  052%=      5-min Rain = 0
KPD3 152111Z 13004KT 27/16 A30 RMK A01 T02670160  RH  052%=      5-min Rain = 0
KPD3 152112Z 09006G11KT 27/16 A30 RMK A01 T02710162  RH  051%=      5-min Rain = 0
KPD3 152113Z 07008G13KT 28/16 A30 RMK A01 T02760163  RH  050%=      5-min Rain = 0
KPD3 152114Z 10006KT 28/16 A30 RMK A01 T02760160  RH  049%=      5-min Rain = 0
KPD3 152115Z 11006KT 27/16 A30 RMK A01 T02730159  RH  050%=      5-min Rain = 0
KPD3 152116Z 12006KT 27/16 A2999 RMK A01 T02710158  RH  050%=      5-min Rain = 0
KPD3 152117Z 09009KT 27/16 A2999 RMK A01 T02710158  RH  050%=      5-min Rain = 0
KPD3 152118Z 10009KT 27/16 A2999 RMK A01 T02730160  RH  050%=      5-min Rain = 0
KPD3 152119Z 12006KT 28/16 A2999 RMK A01 T02770158  RH  049%=      5-min Rain = 0
KPD3 152120Z 13005KT 28/16 A2999 RMK A01 T02770156  RH  048%=      5-min Rain = 0
KPD3 152121Z 13004KT 28/16 A2999 RMK A01 T02760155  RH  048%=      5-min Rain = 0
KPD3 152122Z 16002KT 28/16 A2999 RMK A01 T02750156  RH  048%=      5-min Rain = 0
KPD3 152123Z 09003G8KT 28/16 A2999 RMK A01 T02750159  RH  049%=      5-min Rain = 0
KPD3 152124Z 03006KT 28/16 A2999 RMK A01 T02760160  RH  049%=      5-min Rain = 0
KPD3 152125Z 04005KT 28/16 A2999 RMK A01 T02780162  RH  049%=      5-min Rain = 0
KPD3 152126Z 04007KT 28/16 A2999 RMK A01 T02790161  RH  049%=      5-min Rain = 0
KPD3 152127Z 07008KT 28/16 A2999 RMK A01 T02800162  RH  049%=      5-min Rain = 0
KPD3 152128Z 09009KT 28/16 A2999 RMK A01 T02820163  RH  048%=      5-min Rain = 0
KPD3 152129Z 09001KT 28/16 A2999 RMK A01 T02790159  RH  048%=      5-min Rain = 0
KPD3 152130Z 09005KT 28/16 A2999 RMK A01 T02760160  RH  049%=      5-min Rain = 0
KPD3 152131Z 09007KT 27/16 A2999 RMK A01 T02740158  RH  049%=      5-min Rain = 0
KPD3 152132Z 09008KT 27/16 A2999 RMK A01 T02720157  RH  049%=      5-min Rain = 0
KPD3 152133Z 08008KT 27/16 A2999 RMK A01 T02700157  RH  050%=      5-min Rain = 0
KPD3 152134Z 08005KT 27/16 A2999 RMK A01 T02670156  RH  051%=      5-min Rain = 0
KPD3 152135Z 08008KT 27/16 A2999 RMK A01 T02660157  RH  051%=      5-min Rain = 0
KPD3 152136Z 09008KT 27/15 A2999 RMK A01 T02650154  RH  050%=      5-min Rain = 0
KPD3 152137Z 09004KT 26/15 A2999 RMK A01 T02640153  RH  050%=      5-min Rain = 0
KPD3 152138Z 09004KT 26/15 A2998 RMK A01 T02620152  RH  051%=      5-min Rain = 0
KPD3 152139Z 09002KT 26/15 A2998 RMK A01 T02610152  RH  051%=      5-min Rain = 0
KPD3 152140Z 11003KT 26/16 A2998 RMK A01 T02640156  RH  051%=      5-min Rain = 0
KPD3 152141Z 12001KT 27/15 A2998 RMK A01 T02680154  RH  049%=      5-min Rain = 0
KPD3 152142Z 06000KT 27/16 A2998 RMK A01 T02710156  RH  049%=      5-min Rain = 0
KPD3 152143Z 10001KT 27/16 A2998 RMK A01 T02740158  RH  049%=      5-min Rain = 0
KPD3 152144Z 09005KT 28/16 A2998 RMK A01 T02770155  RH  048%=      5-min Rain = 0
KPD3 152145Z 08005KT 28/15 A2998 RMK A01 T02780152  RH  046%=      5-min Rain = 0
KPD3 152146Z 08004KT 28/15 A2998 RMK A01 T02770151  RH  046%=      5-min Rain = 0
KPD3 152147Z 13005KT 28/15 A2998 RMK A01 T02750153  RH  047%=      5-min Rain = 0
KPD3 152148Z 11008KT 28/15 A2998 RMK A01 T02780153  RH  047%=      5-min Rain = 0
KPD3 152149Z 13004KT 28/15 A2998 RMK A01 T02790151  RH  045%=      5-min Rain = 0
KPD3 152150Z 10006KT 28/15 A2998 RMK A01 T02760150  RH  046%=      5-min Rain = 0
KPD3 152151Z 09006KT 28/15 A2998 RMK A01 T02760152  RH  047%=      5-min Rain = 0
KPD3 152152Z 13002KT 28/15 A2998 RMK A01 T02770152  RH  046%=      5-min Rain = 0
KPD3 152153Z 14002KT 28/15 A2998 RMK A01 T02780152  RH  046%=      5-min Rain = 0
KPD3 152154Z 08005KT 28/15 A2997 RMK A01 T02790152  RH  046%=      5-min Rain = 0
KPD3 152155Z 08004KT 28/15 A2997 RMK A01 T02800153  RH  046%=      5-min Rain = 0
KPD3 152156Z 14005KT 28/15 A2998 RMK A01 T02810154  RH  046%=      5-min Rain = 0
KPD3 152157Z 13008KT 28/16 A2998 RMK A01 T02840159  RH  046%=      5-min Rain = 0
KPD3 152158Z 12006KT 29/16 A2997 RMK A01 T02860158  RH  046%=      5-min Rain = 0
KPD3 152159Z 12009KT 28/16 A2997 RMK A01 T02840159  RH  047%=      5-min Rain = 0
KPD3 152200Z 13008KT 28/16 A2997 RMK A01 T02820158  RH  047%=      5-min Rain = 0
KPD3 152201Z 13007KT 28/16 A2997 RMK A01 T02820159  RH  047%=      5-min Rain = 0
KPD3 152202Z 13006KT 29/16 A2997 RMK A01 T02860161  RH  046%=      5-min Rain = 0
KPD3 152203Z 16006KT 29/16 A2997 RMK A01 T02890159  RH  045%=      5-min Rain = 0
KPD3 152204Z 16005KT 29/16 A2997 RMK A01 T02880159  RH  046%=      5-min Rain = 0
KPD3 152205Z 15004KT 29/16 A2997 RMK A01 T02880159  RH  046%=      5-min Rain = 0
KPD3 152206Z 12003KT 29/16 A2997 RMK A01 T02890159  RH  045%=      5-min Rain = 0
KPD3 152207Z 13005KT 29/16 A2997 RMK A01 T02920159  RH  045%=      5-min Rain = 0
KPD3 152208Z 11005KT 29/16 A2997 RMK A01 T02920157  RH  044%=      5-min Rain = 0
KPD3 152209Z 13004KT 29/16 A2997 RMK A01 T02880156  RH  045%=      5-min Rain = 0
KPD3 152210Z 10005KT 29/16 A2997 RMK A01 T02870157  RH  045%=      5-min Rain = 0
KPD3 152211Z 08006KT 29/16 A2997 RMK A01 T02880156  RH  045%=      5-min Rain = 0
KPD3 152212Z 05004KT 29/16 A2997 RMK A01 T02850156  RH  046%=      5-min Rain = 0
KPD3 152213Z 10003KT 28/16 A2997 RMK A01 T02840157  RH  046%=      5-min Rain = 0
KPD3 152214Z 06005KT 29/16 A2997 RMK A01 T02860160  RH  046%=      5-min Rain = 0
KPD3 152215Z 07005KT 29/16 A2997 RMK A01 T02900160  RH  045%=      5-min Rain = 0
KPD3 152216Z 08008KT 29/16 A2997 RMK A01 T02920158  RH  044%=      5-min Rain = 0
KPD3 152217Z 06009KT 29/16 A2997 RMK A01 T02900159  RH  045%=      5-min Rain = 0
KPD3 152218Z 08011KT 29/16 A2997 RMK A01 T02900158  RH  045%=      5-min Rain = 0
KPD3 152219Z 10010KT 29/16 A2996 RMK A01 T02880158  RH  045%=      5-min Rain = 0
KPD3 152220Z 10011KT 29/16 A2996 RMK A01 T02860156  RH  045%=      5-min Rain = 0
KPD3 152221Z 10011KT 28/16 A2996 RMK A01 T02830155  RH  046%=      5-min Rain = 0
KPD3 152222Z 10011KT 28/15 A2996 RMK A01 T02810154  RH  046%=      5-min Rain = 0
KPD3 152223Z 10009KT 28/15 A2996 RMK A01 T02770154  RH  047%=      5-min Rain = 0
KPD3 152224Z 09007KT 27/15 A2996 RMK A01 T02730154  RH  048%=      5-min Rain = 0
KPD3 152225Z 08007KT 27/15 A2996 RMK A01 T02710153  RH  049%=      5-min Rain = 0
KPD3 152226Z 09008KT 27/15 A2996 RMK A01 T02700153  RH  049%=      5-min Rain = 0
KPD3 152227Z 11009KT 27/15 A2996 RMK A01 T02700152  RH  048%=      5-min Rain = 0
KPD3 152228Z 12009KT 27/15 A2996 RMK A01 T02700151  RH  048%=      5-min Rain = 0
KPD3 152229Z 09008KT 27/15 A2996 RMK A01 T02690152  RH  049%=      5-min Rain = 0
KPD3 152230Z 10006KT 27/15 A2996 RMK A01 T02680152  RH  049%=      5-min Rain = 0
KPD3 152231Z 09005KT 27/15 A2996 RMK A01 T02670152  RH  049%=      5-min Rain = 0
KPD3 152232Z 09006KT 27/15 A2996 RMK A01 T02660151  RH  049%=      5-min Rain = 0
KPD3 152233Z 09005KT 27/15 A2996 RMK A01 T02660151  RH  049%=      5-min Rain = 0
KPD3 152234Z 10004KT 27/15 A2996 RMK A01 T02660151  RH  049%=      5-min Rain = 0
KPD3 152235Z 10003KT 27/15 A2996 RMK A01 T02660150  RH  049%=      5-min Rain = 0
KPD3 152236Z 09004KT 27/15 A2996 RMK A01 T02680151  RH  049%=      5-min Rain = 0
KPD3 152237Z 10005KT 27/15 A2996 RMK A01 T02700152  RH  048%=      5-min Rain = 0
KPD3 152238Z 08005KT 27/15 A2996 RMK A01 T02730153  RH  048%=      5-min Rain = 0
KPD3 152239Z 10003KT 27/15 A2996 RMK A01 T02740153  RH  048%=      5-min Rain = 0
KPD3 152240Z 11001KT 27/15 A2995 RMK A01 T02740154  RH  048%=      5-min Rain = 0
KPD3 152241Z 10004KT 28/16 A2995 RMK A01 T02770155  RH  047%=      5-min Rain = 0
KPD3 152242Z 08004KT 28/16 A2995 RMK A01 T02790155  RH  047%=      5-min Rain = 0
KPD3 152243Z 08006G12KT 28/16 A2995 RMK A01 T02800157  RH  047%=      5-min Rain = 0
KPD3 152244Z 08011KT 28/16 A2995 RMK A01 T02820160  RH  047%=      5-min Rain = 0
KPD3 152245Z 12009KT 29/16 A2995 RMK A01 T02860159  RH  046%=      5-min Rain = 0
KPD3 152246Z 11008KT 29/16 A2995 RMK A01 T02860157  RH  046%=      5-min Rain = 0
KPD3 152247Z 08009KT 28/16 A2995 RMK A01 T02840158  RH  046%=      5-min Rain = 0
KPD3 152248Z 08010KT 28/16 A2995 RMK A01 T02840158  RH  046%=      5-min Rain = 0
KPD3 152249Z 08008KT 28/16 A2995 RMK A01 T02840157  RH  046%=      5-min Rain = 0
KPD3 152250Z 09009KT 28/16 A2995 RMK A01 T02830157  RH  046%=      5-min Rain = 0
KPD3 152251Z 09010KT 28/16 A2995 RMK A01 T02820157  RH  047%=      5-min Rain = 0
KPD3 152252Z 09010KT 28/16 A2995 RMK A01 T02800156  RH  047%=      5-min Rain = 0
KPD3 152253Z 09007KT 28/16 A2995 RMK A01 T02790155  RH  047%=      5-min Rain = 0
KPD3 152254Z 07007KT 28/16 A2995 RMK A01 T02780156  RH  048%=      5-min Rain = 0
KPD3 152255Z 08006KT 28/16 A2995 RMK A01 T02770157  RH  048%=      5-min Rain = 0
KPD3 152256Z 08007KT 28/16 A2995 RMK A01 T02760157  RH  048%=      5-min Rain = 0
KPD3 152257Z 10007KT 28/16 A2995 RMK A01 T02760158  RH  048%=      5-min Rain = 0
KPD3 152258Z 09008KT 28/16 A2995 RMK A01 T02770156  RH  048%=      5-min Rain = 0
KPD3 152259Z 10009KT 28/16 A2995 RMK A01 T02780157  RH  048%=      5-min Rain = 0
KPD3 152300Z 09007KT 28/16 A2994 RMK A01 T02800158  RH  047%=      5-min Rain = 0
KPD3 152301Z 08007KT 28/16 A2994 RMK A01 T02800158  RH  047%=      5-min Rain = 0
KPD3 152302Z 09007KT 28/16 A2994 RMK A01 T02790157  RH  047%=      5-min Rain = 0
KPD3 152303Z 10007KT 28/16 A2994 RMK A01 T02790157  RH  047%=      5-min Rain = 0
KPD3 152304Z 10008KT 28/16 A2994 RMK A01 T02810155  RH  046%=      5-min Rain = 0
KPD3 152305Z 10006KT 28/15 A2994 RMK A01 T02800154  RH  046%=      5-min Rain = 0
KPD3 152306Z 11004KT 28/16 A2994 RMK A01 T02790157  RH  047%=      5-min Rain = 0
KPD3 152307Z 11004KT 28/16 A2994 RMK A01 T02790156  RH  047%=      5-min Rain = 0
KPD3 152308Z 12004KT 28/16 A2994 RMK A01 T02790156  RH  047%=      5-min Rain = 0
KPD3 152309Z 13003KT 28/16 A2994 RMK A01 T02810155  RH  046%=      5-min Rain = 0
KPD3 152310Z 12002KT 28/16 A2994 RMK A01 T02800156  RH  047%=      5-min Rain = 0
KPD3 152311Z 11004KT 28/16 A2994 RMK A01 T02790157  RH  047%=      5-min Rain = 0
KPD3 152312Z 11004KT 28/16 A2994 RMK A01 T02800155  RH  046%=      5-min Rain = 0
KPD3 152313Z 13006KT 28/15 A2994 RMK A01 T02820153  RH  045%=      5-min Rain = 0
KPD3 152314Z 12005KT 28/15 A2994 RMK A01 T02820152  RH  045%=      5-min Rain = 0
KPD3 152315Z 06004KT 28/15 A2994 RMK A01 T02820153  RH  045%=      5-min Rain = 0
KPD3 152316Z 04003KT 28/15 A2994 RMK A01 T02820154  RH  046%=      5-min Rain = 0
KPD3 152317Z 05003KT 28/15 A2994 RMK A01 T02820154  RH  046%=      5-min Rain = 0
KPD3 152318Z 04004KT 28/16 A2994 RMK A01 T02810156  RH  046%=      5-min Rain = 0
KPD3 152319Z 06006KT 28/16 A2994 RMK A01 T02810157  RH  047%=      5-min Rain = 0
KPD3 152320Z 04004KT 28/16 A2994 RMK A01 T02810157  RH  047%=      5-min Rain = 0
KPD3 152321Z 03003KT 28/16 A2994 RMK A01 T02800157  RH  047%=      5-min Rain = 0
KPD3 152322Z 06003KT 28/16 A2994 RMK A01 T02800157  RH  047%=      5-min Rain = 0
KPD3 152323Z 09003KT 28/16 A2994 RMK A01 T02800157  RH  047%=      5-min Rain = 0
KPD3 152324Z 12008KT 28/16 A2994 RMK A01 T02810157  RH  047%=      5-min Rain = 0
KPD3 152325Z 13008KT 28/16 A2994 RMK A01 T02810156  RH  047%=      5-min Rain = 0
KPD3 152326Z 13007KT 28/16 A2994 RMK A01 T02800157  RH  047%=      5-min Rain = 0
KPD3 152327Z 07008KT 28/16 A2994 RMK A01 T02810157  RH  047%=      5-min Rain = 0
KPD3 152328Z 08008KT 28/16 A2994 RMK A01 T02820158  RH  047%=      5-min Rain = 0
KPD3 152329Z 08008KT 28/16 A2994 RMK A01 T02830157  RH  046%=      5-min Rain = 0
KPD3 152330Z 07007KT 28/16 A2994 RMK A01 T02820156  RH  046%=      5-min Rain = 0
KPD3 152331Z 07006KT 28/16 A2994 RMK A01 T02800156  RH  047%=      5-min Rain = 0
KPD3 152332Z 06005KT 28/16 A2994 RMK A01 T02780157  RH  048%=      5-min Rain = 0
KPD3 152333Z 07004KT 28/16 A2994 RMK A01 T02780156  RH  048%=      5-min Rain = 0
KPD3 152334Z 09008KT 28/16 A2994 RMK A01 T02770157  RH  048%=      5-min Rain = 0
KPD3 152335Z 11007KT 28/16 A2994 RMK A01 T02760155  RH  048%=      5-min Rain = 0
KPD3 152336Z 10008KT 27/16 A2993 RMK A01 T02730155  RH  048%=      5-min Rain = 0
KPD3 152337Z 08009KT 27/16 A2993 RMK A01 T02720155  RH  049%=      5-min Rain = 0
KPD3 152338Z 07008KT 27/15 A2994 RMK A01 T02700154  RH  049%=      5-min Rain = 0
KPD3 152339Z 08006KT 27/15 A2993 RMK A01 T02690154  RH  049%=      5-min Rain = 0
KPD3 152340Z 10006KT 27/15 A2993 RMK A01 T02680154  RH  050%=      5-min Rain = 0
KPD3 152341Z 09005KT 27/15 A2993 RMK A01 T02670154  RH  050%=      5-min Rain = 0
KPD3 152342Z 12005KT 27/15 A2993 RMK A01 T02670154  RH  050%=      5-min Rain = 0
KPD3 152343Z 11006KT 27/15 A2993 RMK A01 T02670153  RH  049%=      5-min Rain = 0
KPD3 152344Z 09008KT 27/15 A2993 RMK A01 T02670152  RH  049%=      5-min Rain = 0
KPD3 152345Z 09006KT 27/15 A2993 RMK A01 T02670153  RH  050%=      5-min Rain = 0
KPD3 152346Z 10006KT 27/15 A2993 RMK A01 T02670153  RH  050%=      5-min Rain = 0
KPD3 152347Z 10005KT 27/15 A2993 RMK A01 T02670154  RH  050%=      5-min Rain = 0
KPD3 152348Z 10003KT 27/15 A2993 RMK A01 T02670154  RH  050%=      5-min Rain = 0
KPD3 152349Z 11004KT 27/15 A2993 RMK A01 T02670154  RH  050%=      5-min Rain = 0
KPD3 152350Z 12005KT 27/15 A2993 RMK A01 T02670153  RH  050%=      5-min Rain = 0
KPD3 152351Z 11004KT 27/15 A2993 RMK A01 T02670153  RH  049%=      5-min Rain = 0
KPD3 152352Z 12006KT 27/15 A2993 RMK A01 T02680153  RH  049%=      5-min Rain = 0
KPD3 152353Z 10005KT 27/15 A2993 RMK A01 T02680153  RH  049%=      5-min Rain = 0
KPD3 152354Z 11005KT 27/15 A2993 RMK A01 T02680154  RH  049%=      5-min Rain = 0
KPD3 152355Z 10005KT 27/15 A2993 RMK A01 T02680153  RH  049%=      5-min Rain = 0
KPD3 152356Z 09005KT 27/15 A2993 RMK A01 T02680154  RH  049%=      5-min Rain = 0
KPD3 152357Z 09004KT 27/15 A2993 RMK A01 T02680154  RH  050%=      5-min Rain = 0
KPD3 152358Z 08005KT 27/16 A2993 RMK A01 T02680155  RH  050%=      5-min Rain = 0
KPD3 152359Z 09006KT 27/16 A2993 RMK A01 T02680155  RH  050%=      5-min Rain = 0
KPD3 160000Z 10007KT 27/16 A2992 RMK A01 T02680155  RH  050%=      5-min Rain = 0
KPD3 160001Z 09007KT 27/15 A2992 RMK A01 T02690154  RH  049%=      5-min Rain = 0
KPD3 160002Z 09008KT 27/16 A2992 RMK A01 T02700155  RH  049%=      5-min Rain = 0
KPD3 160003Z 09009KT 27/15 A2992 RMK A01 T02700154  RH  049%=      5-min Rain = 0
KPD3 160004Z 08009KT 27/15 A2992 RMK A01 T02700152  RH  048%=      5-min Rain = 0
KPD3 160005Z 08010KT 27/15 A2992 RMK A01 T02710153  RH  048%=      5-min Rain = 0
KPD3 160006Z 09008KT 27/15 A2992 RMK A01 T02710153  RH  048%=      5-min Rain = 0
KPD3 160007Z 11009KT 27/15 A2992 RMK A01 T02710152  RH  048%=      5-min Rain = 0
KPD3 160008Z 11008KT 27/15 A2992 RMK A01 T02710152  RH  048%=      5-min Rain = 0
KPD3 160009Z 12008KT 27/15 A2992 RMK A01 T02710152  RH  048%=      5-min Rain = 0
KPD3 160010Z 11007KT 27/15 A2992 RMK A01 T02710153  RH  049%=      5-min Rain = 0
KPD3 160011Z 12008KT 27/15 A2992 RMK A01 T02700154  RH  049%=      5-min Rain = 0
KPD3 160012Z 11009KT 27/16 A2992 RMK A01 T02700155  RH  049%=      5-min Rain = 0
KPD3 160013Z 13009KT 27/16 A2992 RMK A01 T02690155  RH  049%=      5-min Rain = 0
KPD3 160014Z 13010KT 27/16 A2992 RMK A01 T02690155  RH  050%=      5-min Rain = 0
KPD3 160015Z 13010KT 27/15 A2992 RMK A01 T02680154  RH  050%=      5-min Rain = 0
KPD3 160016Z 13009KT 27/15 A2992 RMK A01 T02670154  RH  050%=      5-min Rain = 0
KPD3 160017Z 13009KT 27/15 A2992 RMK A01 T02670154  RH  050%=      5-min Rain = 0
KPD3 160018Z 13008KT 27/15 A2992 RMK A01 T02670154  RH  050%=      5-min Rain = 0
KPD3 160019Z 14006KT 27/15 A2992 RMK A01 T02660153  RH  050%=      5-min Rain = 0
KPD3 160020Z 14007KT 27/15 A2992 RMK A01 T02660153  RH  050%=      5-min Rain = 0
KPD3 160021Z 13007KT 27/15 A2992 RMK A01 T02650153  RH  050%=      5-min Rain = 0
KPD3 160022Z 14008KT 27/15 A2992 RMK A01 T02650153  RH  050%=      5-min Rain = 0
KPD3 160023Z 14008KT 26/15 A2992 RMK A01 T02640153  RH  050%=      5-min Rain = 0
KPD3 160024Z 14006KT 26/15 A2992 RMK A01 T02640152  RH  050%=      5-min Rain = 0
KPD3 160025Z 13006KT 26/15 A2992 RMK A01 T02640152  RH  050%=      5-min Rain = 0
KPD3 160026Z 14008KT 26/15 A2992 RMK A01 T02630152  RH  051%=      5-min Rain = 0
KPD3 160027Z 14009KT 26/15 A2992 RMK A01 T02630152  RH  051%=      5-min Rain = 0
KPD3 160028Z 14008KT 26/15 A2992 RMK A01 T02630152  RH  051%=      5-min Rain = 0
KPD3 160029Z 14007KT 26/15 A2993 RMK A01 T02630153  RH  051%=      5-min Rain = 0
KPD3 160030Z 14008KT 26/15 A2993 RMK A01 T02620151  RH  051%=      5-min Rain = 0
KPD3 160031Z 14007KT 26/15 A2993 RMK A01 T02620151  RH  051%=      5-min Rain = 0
KPD3 160032Z 13006KT 26/15 A2993 RMK A01 T02610151  RH  051%=      5-min Rain = 0
KPD3 160033Z 13007KT 26/15 A2993 RMK A01 T02610151  RH  051%=      5-min Rain = 0
KPD3 160034Z 12006KT 26/15 A2993 RMK A01 T02600151  RH  051%=      5-min Rain = 0
KPD3 160035Z 13007KT 26/15 A2993 RMK A01 T02600150  RH  051%=      5-min Rain = 0
KPD3 160036Z 12007KT 26/15 A2993 RMK A01 T02610151  RH  051%=      5-min Rain = 0
KPD3 160037Z 13010KT 26/15 A2993 RMK A01 T02600152  RH  051%=      5-min Rain = 0
KPD3 160038Z 13008KT 26/15 A2993 RMK A01 T02600153  RH  052%=      5-min Rain = 0
KPD3 160039Z 13009KT 26/15 A2993 RMK A01 T02600153  RH  052%=      5-min Rain = 0
KPD3 160040Z 13009KT 26/15 A2994 RMK A01 T02600153  RH  052%=      5-min Rain = 0
KPD3 160041Z 13009KT 26/15 A2994 RMK A01 T02590153  RH  052%=      5-min Rain = 0
KPD3 160042Z 13008KT 26/15 A2994 RMK A01 T02590154  RH  052%=      5-min Rain = 0
KPD3 160043Z 13009KT 26/16 A2994 RMK A01 T02590155  RH  053%=      5-min Rain = 0
KPD3 160044Z 13007KT 26/16 A2994 RMK A01 T02590156  RH  053%=      5-min Rain = 0
KPD3 160045Z 14007KT 26/16 A2994 RMK A01 T02590156  RH  053%=      5-min Rain = 0
KPD3 160046Z 14008KT 26/16 A2994 RMK A01 T02580157  RH  054%=      5-min Rain = 0
KPD3 160047Z 14007KT 26/16 A2994 RMK A01 T02570158  RH  054%=      5-min Rain = 0
KPD3 160048Z 13008KT 26/16 A2994 RMK A01 T02570159  RH  055%=      5-min Rain = 0
KPD3 160049Z 13008KT 26/16 A2994 RMK A01 T02570159  RH  055%=      5-min Rain = 0
KPD3 160050Z 13009KT 26/16 A2994 RMK A01 T02570160  RH  055%=      5-min Rain = 0
KPD3 160051Z 13008KT 26/16 A2994 RMK A01 T02560160  RH  055%=      5-min Rain = 0
KPD3 160052Z 12008KT 26/16 A2994 RMK A01 T02570160  RH  055%=      5-min Rain = 0
KPD3 160053Z 12008KT 26/16 A2994 RMK A01 T02560160  RH  055%=      5-min Rain = 0
KPD3 160054Z 12008KT 26/16 A2994 RMK A01 T02560160  RH  055%=      5-min Rain = 0
KPD3 160055Z 12008KT 26/16 A2994 RMK A01 T02560160  RH  055%=      5-min Rain = 0
KPD3 160056Z 12008KT 26/16 A2994 RMK A01 T02550160  RH  056%=      5-min Rain = 0
KPD3 160057Z 12007KT 26/16 A2994 RMK A01 T02550160  RH  056%=      5-min Rain = 0
KPD3 160058Z 13006KT 26/16 A2994 RMK A01 T02550160  RH  056%=      5-min Rain = 0
KPD3 160059Z 12007KT 26/16 A2994 RMK A01 T02550160  RH  056%=      5-min Rain = 0
KPD3 160100Z 13007KT 25/16 A2995 RMK A01 T02540160  RH  056%=      5-min Rain = 0
KPD3 160101Z 13007KT 26/16 A2995 RMK A01 T02550160  RH  056%=      5-min Rain = 0
KPD3 160102Z 14007KT 25/16 A2995 RMK A01 T02540160  RH  056%=      5-min Rain = 0
KPD3 160103Z 14006KT 25/16 A2996 RMK A01 T02540160  RH  056%=      5-min Rain = 0
KPD3 160104Z 15006KT 25/16 A2996 RMK A01 T02540160  RH  056%=      5-min Rain = 0
KPD3 160105Z 15006KT 25/16 A2996 RMK A01 T02530160  RH  056%=      5-min Rain = 0
KPD3 160106Z 15006KT 25/16 A2996 RMK A01 T02530160  RH  056%=      5-min Rain = 0
KPD3 160107Z 14008KT 25/16 A2997 RMK A01 T02530161  RH  057%=      5-min Rain = 0
KPD3 160108Z 15006KT 25/16 A2997 RMK A01 T02520163  RH  058%=      5-min Rain = 0
KPD3 160109Z 15006KT 25/16 A2997 RMK A01 T02530163  RH  058%=      5-min Rain = 0
KPD3 160110Z 14007KT 25/16 A2997 RMK A01 T02530164  RH  058%=      5-min Rain = 0
KPD3 160111Z 14006KT 25/17 A2997 RMK A01 T02520165  RH  059%=      5-min Rain = 0
KPD3 160112Z 14007KT 25/17 A2998 RMK A01 T02520167  RH  059%=      5-min Rain = 0
KPD3 160113Z 14006KT 25/17 A2998 RMK A01 T02520167  RH  059%=      5-min Rain = 0
KPD3 160114Z 14005KT 25/17 A2998 RMK A01 T02520167  RH  059%=      5-min Rain = 0
KPD3 160115Z 14005KT 25/17 A2999 RMK A01 T02520168  RH  059%=      5-min Rain = 0
KPD3 160116Z 14005KT 25/17 A2999 RMK A01 T02520168  RH  060%=      5-min Rain = 0
KPD3 160117Z 14004KT 25/17 A2999 RMK A01 T02520168  RH  060%=      5-min Rain = 0
KPD3 160118Z 14004KT 25/17 A2999 RMK A01 T02520168  RH  060%=      5-min Rain = 0
KPD3 160119Z 15003KT 25/17 A2999 RMK A01 T02530168  RH  060%=      5-min Rain = 0
KPD3 160120Z 16002KT 25/17 A30 RMK A01 T02520168  RH  060%=      5-min Rain = 0
KPD3 160121Z 18001KT 25/17 A30 RMK A01 T02530168  RH  059%=      5-min Rain = 0
KPD3 160122Z 18001KT 25/17 A30 RMK A01 T02530168  RH  059%=      5-min Rain = 0
KPD3 160123Z 21002KT 25/17 A30 RMK A01 T02530168  RH  059%=      5-min Rain = 0
KPD3 160124Z 19002KT 25/17 A3001 RMK A01 T02520168  RH  059%=      5-min Rain = 0
KPD3 160125Z 18002KT 25/17 A3001 RMK A01 T02520168  RH  059%=      5-min Rain = 0
KPD3 160126Z 17002KT 25/17 A3001 RMK A01 T02520167  RH  059%=      5-min Rain = 0
KPD3 160127Z 16003KT 25/17 A30 RMK A01 T02520168  RH  059%=      5-min Rain = 0
KPD3 160128Z 16002KT 25/17 A30 RMK A01 T02520168  RH  060%=      5-min Rain = 0
KPD3 160129Z 16002KT 25/17 A30 RMK A01 T02520167  RH  059%=      5-min Rain = 0
KPD3 160130Z 15001KT 25/17 A3001 RMK A01 T02510167  RH  059%=      5-min Rain = 0
KPD3 160131Z 16000KT 25/17 A3001 RMK A01 T02510167  RH  060%=      5-min Rain = 0
KPD3 160132Z 00000KT 25/17 A3001 RMK A01 T02500167  RH  060%=      5-min Rain = 0
KPD3 160133Z 00000KT 25/17 A3001 RMK A01 T02500167  RH  060%=      5-min Rain = 0
KPD3 160134Z 00000KT 25/17 A3001 RMK A01 T02500167  RH  060%=      5-min Rain = 0
KPD3 160135Z 31000KT 25/17 A3001 RMK A01 T02500167  RH  060%=      5-min Rain = 0
KPD3 160136Z 31002KT 25/17 A3001 RMK A01 T02490167  RH  060%=      5-min Rain = 0
KPD3 160137Z 31003KT 25/17 A3001 RMK A01 T02480166  RH  060%=      5-min Rain = 0
KPD3 160138Z 31004KT 25/16 A3002 RMK A01 T02460164  RH  060%=      5-min Rain = 0
KPD3 160139Z 31004KT 24/16 A3002 RMK A01 T02440164  RH  061%=      5-min Rain = 0
KPD3 160140Z 30004KT 24/16 A3002 RMK A01 T02420164  RH  062%=      5-min Rain = 0
KPD3 160141Z 31004KT 24/16 A3002 RMK A01 T02420164  RH  062%=      5-min Rain = 0
KPD3 160142Z 32004KT 24/16 A3002 RMK A01 T02410164  RH  062%=      5-min Rain = 0
KPD3 160143Z 33005KT 24/16 A3002 RMK A01 T02400164  RH  062%=      5-min Rain = 0
KPD3 160144Z 34006KT 24/16 A3002 RMK A01 T02400164  RH  063%=      5-min Rain = 0
KPD3 160145Z 34006KT 24/17 A3002 RMK A01 T02390165  RH  063%=      5-min Rain = 0
KPD3 160146Z 34006KT 24/17 A3002 RMK A01 T02390165  RH  063%=      5-min Rain = 0
KPD3 160147Z 33007KT 24/17 A3002 RMK A01 T02390165  RH  063%=      5-min Rain = 0
KPD3 160148Z 32007KT 24/17 A3002 RMK A01 T02400165  RH  063%=      5-min Rain = 0
KPD3 160149Z 32007KT 24/17 A3002 RMK A01 T02400165  RH  063%=      5-min Rain = 0
KPD3 160150Z 32007KT 24/17 A3002 RMK A01 T02410165  RH  063%=      5-min Rain = 0
KPD3 160151Z 32006KT 24/17 A3002 RMK A01 T02410165  RH  063%=      5-min Rain = 0
KPD3 160152Z 32006KT 24/17 A3001 RMK A01 T02410165  RH  062%=      5-min Rain = 0
KPD3 160153Z 32005KT 24/17 A3001 RMK A01 T02420165  RH  062%=      5-min Rain = 0
KPD3 160154Z 33005KT 24/17 A3001 RMK A01 T02420165  RH  062%=      5-min Rain = 0
KPD3 160155Z 33004KT 24/17 A3001 RMK A01 T02420165  RH  062%=      5-min Rain = 0
KPD3 160156Z 34005KT 24/17 A3001 RMK A01 T02420165  RH  062%=      5-min Rain = 0
KPD3 160157Z 34005KT 24/17 A3001 RMK A01 T02430165  RH  062%=      5-min Rain = 0
KPD3 160158Z 33006KT 24/17 A3001 RMK A01 T02420166  RH  062%=      5-min Rain = 0
KPD3 160159Z 33005KT 24/17 A3001 RMK A01 T02410169  RH  064%=      5-min Rain = 0
KPD3 160200Z 32005KT 24/17 A3001 RMK A01 T02400172  RH  066%=      5-min Rain = 0
KPD3 160201Z 31006KT 24/18 A3002 RMK A01 T02380175  RH  068%=      5-min Rain = 0
KPD3 160202Z 30007KT 24/18 A3002 RMK A01 T02350179  RH  071%=      5-min Rain = 0
KPD3 160203Z 30008KT 23/18 A3002 RMK A01 T02320180  RH  073%=      5-min Rain = 0
KPD3 160204Z 29008KT 23/18 A3002 RMK A01 T02280181  RH  074%=      5-min Rain = 0
KPD3 160205Z 29009KT 23/18 A3002 RMK A01 T02260182  RH  076%=      5-min Rain = 0
KPD3 160206Z 29008KT 22/18 A3002 RMK A01 T02240182  RH  077%=      5-min Rain = 0
KPD3 160207Z 29008KT 22/18 A3002 RMK A01 T02230182  RH  077%=      5-min Rain = 0
KPD3 160208Z 31009KT 22/18 A3002 RMK A01 T02230184  RH  079%=      5-min Rain = 0
KPD3 160209Z 32011G16KT 22/19 A3003 RMK A01 T02220185  RH  079%=      5-min Rain = 0
KPD3 160210Z 33019G25KT 22/18 A3005 RMK A01 T02210183  RH  079%=      5-min Rain = 0
KPD3 160211Z 30029G39KT 22/15 A3005 RMK A01 T02200148  RH  064%=      5-min Rain = 0.01
KPD3 160212Z 30031KT 21/13 A3006 RMK A01 T02100131  RH  061%=      5-min Rain = 0.01
KPD3 160213Z 30024G33KT 20/13 A3006 RMK A01 T02000131  RH  065%=      5-min Rain = 0.01
KPD3 160214Z 29023G29KT 20/13 A3006 RMK A01 T01950133  RH  067%=      5-min Rain = 0
KPD3 160215Z 29016G21KT 19/13 A3006 RMK A01 T01920130  RH  067%=      5-min Rain = 0.01
KPD3 160216Z 30019KT 19/13 A3006 RMK A01 T01900133  RH  069%=      5-min Rain = 0
KPD3 160217Z 31015G23KT 19/13 A3006 RMK A01 T01870134  RH  071%=      5-min Rain = 0
KPD3 160218Z 32016G21KT 19/13 A3005 RMK A01 T01850134  RH  072%=      5-min Rain = 0
KPD3 160219Z 33016KT 18/14 A3005 RMK A01 T01820136  RH  074%=      5-min Rain = 0.01
KPD3 160220Z 33017KT 18/13 A3005 RMK A01 T01800134  RH  075%=      5-min Rain = 0
KPD3 160221Z 33016KT 18/13 A3005 RMK A01 T01800134  RH  075%=      5-min Rain = 0
KPD3 160222Z 34014KT 18/13 A3005 RMK A01 T01790133  RH  074%=      5-min Rain = 0
KPD3 160223Z 34013KT 18/13 A3005 RMK A01 T01790134  RH  075%=      5-min Rain = 0
KPD3 160224Z 35012KT 18/14 A3005 RMK A01 T01780135  RH  076%=      5-min Rain = 0.01
KPD3 160225Z 36010KT 18/13 A3004 RMK A01 T01780134  RH  076%=      5-min Rain = 0
KPD3 160226Z 01008KT 18/13 A3004 RMK A01 T01780133  RH  075%=      5-min Rain = 0
KPD3 160227Z 02007KT 18/13 A3003 RMK A01 T01780134  RH  075%=      5-min Rain = 0
KPD3 160228Z 03007KT 18/14 A3003 RMK A01 T01770137  RH  077%=      5-min Rain = 0
KPD3 160229Z 02006KT 18/14 A3003 RMK A01 T01760138  RH  078%=      5-min Rain = 0
KPD3 160230Z 02005KT 18/14 A3003 RMK A01 T01750139  RH  079%=      5-min Rain = 0
KPD3 160231Z 03004KT 17/14 A3003 RMK A01 T01740138  RH  079%=      5-min Rain = 0
KPD3 160232Z 04005KT 17/14 A3003 RMK A01 T01740138  RH  079%=      5-min Rain = 0
KPD3 160233Z 05005KT 17/14 A3003 RMK A01 T01740141  RH  081%=      5-min Rain = 0
KPD3 160234Z 06006KT 17/14 A3003 RMK A01 T01730141  RH  081%=      5-min Rain = 0
KPD3 160235Z 07006KT 17/14 A3003 RMK A01 T01730141  RH  081%=      5-min Rain = 0
KPD3 160236Z 07007KT 17/14 A3003 RMK A01 T01730143  RH  082%=      5-min Rain = 0
KPD3 160237Z 08007KT 17/14 A3003 RMK A01 T01730143  RH  082%=      5-min Rain = 0
KPD3 160238Z 08008KT 17/15 A3002 RMK A01 T01720145  RH  084%=      5-min Rain = 0
KPD3 160239Z 09009KT 17/15 A3002 RMK A01 T01720145  RH  084%=      5-min Rain = 0
KPD3 160240Z 09011KT 17/14 A3001 RMK A01 T01720144  RH  083%=      5-min Rain = 0
KPD3 160241Z 08011KT 17/14 A30 RMK A01 T01730144  RH  083%=      5-min Rain = 0
KPD3 160242Z 08012KT 17/14 A2999 RMK A01 T01730142  RH  082%=      5-min Rain = 0
KPD3 160243Z 07013KT 17/14 A2999 RMK A01 T01740140  RH  081%=      5-min Rain = 0
KPD3 160244Z 08013KT 17/14 A2999 RMK A01 T01740138  RH  079%=      5-min Rain = 0
KPD3 160245Z 08014KT 18/14 A2998 RMK A01 T01750138  RH  079%=      5-min Rain = 0
KPD3 160246Z 08015KT 18/14 A2996 RMK A01 T01750139  RH  080%=      5-min Rain = 0
KPD3 160247Z 08016KT 18/14 A2995 RMK A01 T01750138  RH  079%=      5-min Rain = 0
KPD3 160248Z 08015KT 18/13 A2995 RMK A01 T01760131  RH  075%=      5-min Rain = 0
KPD3 160249Z 09015KT 18/13 A2995 RMK A01 T01790128  RH  072%=      5-min Rain = 0
KPD3 160250Z 10013KT 18/13 A2995 RMK A01 T01820125  RH  070%=      5-min Rain = 0
KPD3 160251Z 10015KT 18/13 A2994 RMK A01 T01840126  RH  069%=      5-min Rain = 0
KPD3 160252Z 11016KT 18/13 A2994 RMK A01 T01840126  RH  069%=      5-min Rain = 0
KPD3 160253Z 11016KT 18/12 A2993 RMK A01 T01840124  RH  068%=      5-min Rain = 0
KPD3 160254Z 10016KT 18/13 A2992 RMK A01 T01840128  RH  070%=      5-min Rain = 0
KPD3 160255Z 10018KT 18/13 A2991 RMK A01 T01820131  RH  072%=      5-min Rain = 0
KPD3 160256Z 10018KT 18/13 A299 RMK A01 T01810132  RH  073%=      5-min Rain = 0
KPD3 160257Z 11016KT 18/13 A299 RMK A01 T01800133  RH  074%=      5-min Rain = 0
KPD3 160258Z 12015KT 18/14 A299 RMK A01 T01770135  RH  076%=      5-min Rain = 0
KPD3 160259Z 12015KT 18/14 A299 RMK A01 T01750135  RH  077%=      5-min Rain = 0
KPD3 160300Z 12014KT 17/14 A299 RMK A01 T01720137  RH  080%=      5-min Rain = 0
KPD3 160301Z 12014KT 17/14 A299 RMK A01 T01720135  RH  079%=      5-min Rain = 0
KPD3 160302Z 12014KT 17/14 A299 RMK A01 T01720135  RH  079%=      5-min Rain = 0
KPD3 160303Z 12013KT 17/14 A299 RMK A01 T01720136  RH  080%=      5-min Rain = 0
KPD3 160304Z 12012KT 17/14 A299 RMK A01 T01710139  RH  081%=      5-min Rain = 0
KPD3 160305Z 12012KT 17/14 A2991 RMK A01 T01720136  RH  079%=      5-min Rain = 0
KPD3 160306Z 13014KT 17/13 A2991 RMK A01 T01740131  RH  076%=      5-min Rain = 0
KPD3 160307Z 13013KT 18/13 A299 RMK A01 T01750130  RH  075%=      5-min Rain = 0
KPD3 160308Z 14013KT 18/13 A2991 RMK A01 T01760130  RH  074%=      5-min Rain = 0
KPD3 160309Z 14013KT 18/13 A2991 RMK A01 T01760127  RH  073%=      5-min Rain = 0
KPD3 160310Z 14013KT 18/13 A2991 RMK A01 T01760126  RH  072%=      5-min Rain = 0
KPD3 160311Z 14013KT 18/13 A2991 RMK A01 T01760125  RH  072%=      5-min Rain = 0
KPD3 160312Z 13012KT 18/12 A299 RMK A01 T01760124  RH  072%=      5-min Rain = 0
KPD3 160313Z 13012KT 18/12 A299 RMK A01 T01770124  RH  071%=      5-min Rain = 0
KPD3 160314Z 14011KT 18/12 A2991 RMK A01 T01770124  RH  071%=      5-min Rain = 0
KPD3 160315Z 14010KT 18/12 A2991 RMK A01 T01770124  RH  071%=      5-min Rain = 0
KPD3 160316Z 14010KT 18/12 A2991 RMK A01 T01780123  RH  070%=      5-min Rain = 0
KPD3 160317Z 14010KT 18/12 A2991 RMK A01 T01780123  RH  070%=      5-min Rain = 0
KPD3 160318Z 14009KT 18/12 A2991 RMK A01 T01780123  RH  070%=      5-min Rain = 0
KPD3 160319Z 15008KT 18/12 A2991 RMK A01 T01780124  RH  071%=      5-min Rain = 0
KPD3 160320Z 17007KT 18/13 A2991 RMK A01 T01770126  RH  072%=      5-min Rain = 0
KPD3 160321Z 19006KT 18/13 A2991 RMK A01 T01760128  RH  074%=      5-min Rain = 0
KPD3 160322Z 20006KT 17/13 A2991 RMK A01 T01740130  RH  075%=      5-min Rain = 0
KPD3 160323Z 20006KT 17/13 A2991 RMK A01 T01720131  RH  077%=      5-min Rain = 0
KPD3 160324Z 20006KT 17/13 A2991 RMK A01 T01720129  RH  076%=      5-min Rain = 0
KPD3 160325Z 21006KT 17/13 A2991 RMK A01 T01720131  RH  077%=      5-min Rain = 0
KPD3 160326Z 23007KT 17/13 A2991 RMK A01 T01710131  RH  077%=      5-min Rain = 0
KPD3 160327Z 23007KT 17/13 A2991 RMK A01 T01700132  RH  078%=      5-min Rain = 0
KPD3 160328Z 21007KT 17/13 A299 RMK A01 T01700133  RH  079%=      5-min Rain = 0
KPD3 160329Z 21007KT 17/13 A299 RMK A01 T01690133  RH  080%=      5-min Rain = 0
KPD3 160330Z 22006KT 17/13 A299 RMK A01 T01690132  RH  079%=      5-min Rain = 0
KPD3 160331Z 21005KT 17/13 A299 RMK A01 T01690132  RH  079%=      5-min Rain = 0
KPD3 160332Z 24004KT 17/13 A299 RMK A01 T01700131  RH  077%=      5-min Rain = 0
KPD3 160333Z 24004KT 17/13 A2989 RMK A01 T01710132  RH  078%=      5-min Rain = 0
KPD3 160334Z 24004KT 17/13 A2989 RMK A01 T01720132  RH  077%=      5-min Rain = 0
KPD3 160335Z 24002KT 17/13 A299 RMK A01 T01720129  RH  076%=      5-min Rain = 0
KPD3 160336Z 25003KT 17/13 A299 RMK A01 T01740129  RH  075%=      5-min Rain = 0
KPD3 160337Z 26004KT 18/13 A299 RMK A01 T01750129  RH  074%=      5-min Rain = 0
KPD3 160338Z 26003KT 18/13 A2991 RMK A01 T01760129  RH  074%=      5-min Rain = 0
KPD3 160339Z 23003KT 18/13 A2991 RMK A01 T01770130  RH  074%=      5-min Rain = 0
KPD3 160340Z 24003KT 18/13 A2991 RMK A01 T01770129  RH  074%=      5-min Rain = 0
KPD3 160341Z 23003KT 18/13 A2992 RMK A01 T01770129  RH  073%=      5-min Rain = 0
KPD3 160342Z 22004KT 18/13 A2992 RMK A01 T01770132  RH  075%=      5-min Rain = 0
KPD3 160343Z 24003KT 18/13 A2992 RMK A01 T01750134  RH  077%=      5-min Rain = 0
KPD3 160344Z 24002KT 17/13 A2992 RMK A01 T01740133  RH  077%=      5-min Rain = 0
KPD3 160345Z 23002KT 17/13 A2993 RMK A01 T01740133  RH  077%=      5-min Rain = 0
KPD3 160346Z 24002KT 17/13 A2993 RMK A01 T01730133  RH  077%=      5-min Rain = 0
KPD3 160347Z 25002KT 17/13 A2993 RMK A01 T01730133  RH  077%=      5-min Rain = 0
KPD3 160348Z 25002KT 17/13 A2993 RMK A01 T01720133  RH  078%=      5-min Rain = 0
KPD3 160349Z 26001KT 17/14 A2994 RMK A01 T01720135  RH  079%=      5-min Rain = 0
KPD3 160350Z 30001KT 17/14 A2994 RMK A01 T01720135  RH  079%=      5-min Rain = 0
KPD3 160351Z 00002KT 17/14 A2994 RMK A01 T01720135  RH  079%=      5-min Rain = 0
KPD3 160352Z 01003KT 17/14 A2994 RMK A01 T01710136  RH  080%=      5-min Rain = 0
KPD3 160353Z 01004KT 17/14 A2994 RMK A01 T01710135  RH  079%=      5-min Rain = 0
KPD3 160354Z 02004KT 17/14 A2994 RMK A01 T01710135  RH  079%=      5-min Rain = 0
KPD3 160355Z 05004KT 17/14 A2994 RMK A01 T01710137  RH  081%=      5-min Rain = 0
KPD3 160356Z 06005KT 17/14 A2995 RMK A01 T01700137  RH  081%=      5-min Rain = 0
KPD3 160357Z 06005KT 17/14 A2995 RMK A01 T01680137  RH  082%=      5-min Rain = 0
KPD3 160358Z 05006KT 17/14 A2995 RMK A01 T01680135  RH  081%=      5-min Rain = 0
KPD3 160359Z 05007KT 17/14 A2995 RMK A01 T01680136  RH  081%=      5-min Rain = 0
KPD3 160400Z 04008KT 17/14 A2995 RMK A01 T01680137  RH  082%=      5-min Rain = 0
KPD3 160401Z 03010KT 17/14 A2995 RMK A01 T01680138  RH  083%=      5-min Rain = 0
KPD3 160402Z 04009KT 17/14 A2995 RMK A01 T01670140  RH  084%=      5-min Rain = 0
KPD3 160403Z 05007KT 17/14 A2996 RMK A01 T01660139  RH  084%=      5-min Rain = 0
KPD3 160404Z 04006KT 17/14 A2996 RMK A01 T01660137  RH  083%=      5-min Rain = 0
KPD3 160405Z 05006KT 17/14 A2996 RMK A01 T01670136  RH  082%=      5-min Rain = 0
KPD3 160406Z 05006KT 17/14 A2996 RMK A01 T01670137  RH  083%=      5-min Rain = 0
KPD3 160407Z 05006KT 17/14 A2996 RMK A01 T01670138  RH  083%=      5-min Rain = 0
KPD3 160408Z 05006KT 17/14 A2996 RMK A01 T01670137  RH  083%=      5-min Rain = 0
KPD3 160409Z 07006KT 17/14 A2996 RMK A01 T01660138  RH  083%=      5-min Rain = 0
KPD3 160410Z 08006KT 17/14 A2996 RMK A01 T01660138  RH  084%=      5-min Rain = 0
KPD3 160411Z 08006KT 17/14 A2996 RMK A01 T01650138  RH  084%=      5-min Rain = 0
KPD3 160412Z 07006KT 17/14 A2996 RMK A01 T01650138  RH  084%=      5-min Rain = 0
KPD3 160413Z 07007KT 17/14 A2996 RMK A01 T01650137  RH  084%=      5-min Rain = 0
KPD3 160414Z 07008KT 17/13 A2996 RMK A01 T01650134  RH  082%=      5-min Rain = 0
KPD3 160415Z 06006KT 17/14 A2996 RMK A01 T01670135  RH  081%=      5-min Rain = 0
KPD3 160416Z 06008KT 17/14 A2996 RMK A01 T01680137  RH  082%=      5-min Rain = 0
KPD3 160417Z 05008KT 17/14 A2996 RMK A01 T01680136  RH  082%=      5-min Rain = 0
KPD3 160418Z 05007KT 17/14 A2996 RMK A01 T01680137  RH  082%=      5-min Rain = 0
KPD3 160419Z 05007KT 17/14 A2996 RMK A01 T01680136  RH  082%=      5-min Rain = 0
KPD3 160420Z 04007KT 17/14 A2996 RMK A01 T01680136  RH  081%=      5-min Rain = 0
KPD3 160421Z 05007KT 17/14 A2996 RMK A01 T01680136  RH  081%=      5-min Rain = 0
KPD3 160422Z 06007KT 17/14 A2997 RMK A01 T01680136  RH  081%=      5-min Rain = 0
KPD3 160423Z 07008KT 17/13 A2997 RMK A01 T01690133  RH  079%=      5-min Rain = 0
KPD3 160424Z 07007KT 17/13 A2996 RMK A01 T01720130  RH  076%=      5-min Rain = 0
KPD3 160425Z 06006KT 17/13 A2996 RMK A01 T01740131  RH  076%=      5-min Rain = 0
KPD3 160426Z 06006KT 18/13 A2996 RMK A01 T01750133  RH  076%=      5-min Rain = 0
KPD3 160427Z 06007KT 17/13 A2996 RMK A01 T01740133  RH  077%=      5-min Rain = 0
KPD3 160428Z 06007KT 17/13 A2996 RMK A01 T01740133  RH  077%=      5-min Rain = 0
KPD3 160429Z 05007KT 17/13 A2996 RMK A01 T01730134  RH  077%=      5-min Rain = 0
KPD3 160430Z 05007KT 17/13 A2997 RMK A01 T01730134  RH  078%=      5-min Rain = 0
KPD3 160431Z 05007KT 17/13 A2997 RMK A01 T01720133  RH  078%=      5-min Rain = 0
KPD3 160432Z 05007KT 17/13 A2997 RMK A01 T01720132  RH  077%=      5-min Rain = 0
KPD3 160433Z 05010KT 17/13 A2997 RMK A01 T01730132  RH  077%=      5-min Rain = 0
KPD3 160434Z 03010KT 17/13 A2997 RMK A01 T01740131  RH  076%=      5-min Rain = 0
KPD3 160435Z 03010KT 18/13 A2997 RMK A01 T01760132  RH  076%=      5-min Rain = 0
KPD3 160436Z 03009KT 18/13 A2997 RMK A01 T01760132  RH  076%=      5-min Rain = 0
KPD3 160437Z 04008KT 18/13 A2997 RMK A01 T01750133  RH  076%=      5-min Rain = 0
KPD3 160438Z 04007KT 17/13 A2997 RMK A01 T01740134  RH  077%=      5-min Rain = 0
KPD3 160439Z 05008KT 17/13 A2997 RMK A01 T01740133  RH  077%=      5-min Rain = 0
KPD3 160440Z 04007KT 17/13 A2997 RMK A01 T01740133  RH  077%=      5-min Rain = 0
KPD3 160441Z 02007KT 17/14 A2998 RMK A01 T01740135  RH  078%=      5-min Rain = 0
KPD3 160442Z 01008KT 17/13 A2998 RMK A01 T01730134  RH  078%=      5-min Rain = 0
KPD3 160443Z 01009KT 17/14 A2998 RMK A01 T01720135  RH  079%=      5-min Rain = 0
KPD3 160444Z 01009KT 17/14 A2998 RMK A01 T01700136  RH  080%=      5-min Rain = 0
KPD3 160445Z 01008KT 17/14 A2999 RMK A01 T01690135  RH  080%=      5-min Rain = 0
KPD3 160446Z 36009KT 17/14 A2999 RMK A01 T01690136  RH  080%=      5-min Rain = 0
KPD3 160447Z 36008KT 17/14 A2999 RMK A01 T01690136  RH  081%=      5-min Rain = 0
KPD3 160448Z 35007KT 17/14 A2999 RMK A01 T01680137  RH  082%=      5-min Rain = 0
KPD3 160449Z 35008KT 17/14 A2998 RMK A01 T01680137  RH  082%=      5-min Rain = 0
KPD3 160450Z 35006KT 17/14 A2998 RMK A01 T01670137  RH  082%=      5-min Rain = 0
KPD3 160451Z 35005KT 17/14 A2998 RMK A01 T01680137  RH  082%=      5-min Rain = 0
KPD3 160452Z 35005KT 17/14 A2998 RMK A01 T01670137  RH  082%=      5-min Rain = 0
KPD3 160453Z 35004KT 17/14 A2998 RMK A01 T01670137  RH  082%=      5-min Rain = 0
KPD3 160454Z 35004KT 17/14 A2998 RMK A01 T01670136  RH  082%=      5-min Rain = 0
KPD3 160455Z 35005KT 17/14 A2998 RMK A01 T01670136  RH  082%=      5-min Rain = 0
KPD3 160456Z 34004KT 17/14 A2998 RMK A01 T01670135  RH  082%=      5-min Rain = 0
KPD3 160457Z 34004KT 17/14 A2998 RMK A01 T01670135  RH  081%=      5-min Rain = 0
KPD3 160458Z 33004KT 17/14 A2998 RMK A01 T01670135  RH  081%=      5-min Rain = 0
KPD3 160459Z 32004KT 17/14 A2998 RMK A01 T01670136  RH  082%=      5-min Rain = 0

Page generated in 0.1015 seconds.